<?xml version="1.0" encoding="UTF-8" standalone="no" ?>
<gpx xmlns="http://www.topografix.com/GPX/1/1" xmlns:xsi="http://www.w3.org/2001/XMLSchema-instance" xsi:schemaLocation="http://www.topografix.com/GPX/1/1 http://www.topografix.com/GPX/1/1/gpx.xsd" version="1.1" creator="VisuGPX - https://www.visugpx.com">
  <metadata>
    <name>60Quaraouble</name>
  </metadata>
  <trk>
    <name><![CDATA[60Quaraouble]]></name>
    <trkseg>
      <trkpt lat="50.50361" lon="3.46454">
        <ele>22.168888</ele>
        <time>2020-05-27T20:18:43.139Z</time>
      </trkpt>
      <trkpt lat="50.50405" lon="3.46483">
        <ele>22.168888</ele>
        <time>2020-05-27T20:18:51.261Z</time>
      </trkpt>
      <trkpt lat="50.50523" lon="3.46572">
        <ele>23.067717</ele>
        <time>2020-05-27T20:19:15.365Z</time>
      </trkpt>
      <trkpt lat="50.50681" lon="3.46651">
        <ele>24.54503</ele>
        <time>2020-05-27T20:19:47.750Z</time>
      </trkpt>
      <trkpt lat="50.50708" lon="3.46672">
        <ele>24.764348</ele>
        <time>2020-05-27T20:19:53.084Z</time>
      </trkpt>
      <trkpt lat="50.50735" lon="3.46707">
        <ele>25.021139</ele>
        <time>2020-05-27T20:19:58.979Z</time>
      </trkpt>
      <trkpt lat="50.50778" lon="3.46766">
        <ele>25.284285</ele>
        <time>2020-05-27T20:20:08.099Z</time>
      </trkpt>
      <trkpt lat="50.50821" lon="3.46826">
        <ele>25.173952</ele>
        <time>2020-05-27T20:20:16.692Z</time>
      </trkpt>
      <trkpt lat="50.50831" lon="3.4684">
        <ele>25.148939</ele>
        <time>2020-05-27T20:20:18.517Z</time>
      </trkpt>
      <trkpt lat="50.50837" lon="3.46857">
        <ele>25.12485</ele>
        <time>2020-05-27T20:20:20.291Z</time>
      </trkpt>
      <trkpt lat="50.5084" lon="3.46941">
        <ele>25.023077</ele>
        <time>2020-05-27T20:20:27.336Z</time>
      </trkpt>
      <trkpt lat="50.5085" lon="3.46978">
        <ele>24.973874</ele>
        <time>2020-05-27T20:20:30.751Z</time>
      </trkpt>
      <trkpt lat="50.50871" lon="3.47017">
        <ele>24.815342</ele>
        <time>2020-05-27T20:20:35.072Z</time>
      </trkpt>
      <trkpt lat="50.50899" lon="3.47062">
        <ele>24.618108</ele>
        <time>2020-05-27T20:20:40.350Z</time>
      </trkpt>
      <trkpt lat="50.50936" lon="3.47116">
        <ele>24.3661</ele>
        <time>2020-05-27T20:20:47.009Z</time>
      </trkpt>
      <trkpt lat="50.50985" lon="3.47169">
        <ele>24.070383</ele>
        <time>2020-05-27T20:20:55.003Z</time>
      </trkpt>
      <trkpt lat="50.51052" lon="3.47236">
        <ele>23.735554</ele>
        <time>2020-05-27T20:21:05.632Z</time>
      </trkpt>
      <trkpt lat="50.51059" lon="3.47247">
        <ele>23.695519</ele>
        <time>2020-05-27T20:21:06.923Z</time>
      </trkpt>
      <trkpt lat="50.51066" lon="3.47262">
        <ele>23.644594</ele>
        <time>2020-05-27T20:21:08.546Z</time>
      </trkpt>
      <trkpt lat="50.51065" lon="3.47278">
        <ele>23.600838</ele>
        <time>2020-05-27T20:21:09.963Z</time>
      </trkpt>
      <trkpt lat="50.51006" lon="3.47445">
        <ele>23.014471</ele>
        <time>2020-05-27T20:21:26.289Z</time>
      </trkpt>
      <trkpt lat="50.51016" lon="3.47475">
        <ele>22.893191</ele>
        <time>2020-05-27T20:21:29.231Z</time>
      </trkpt>
      <trkpt lat="50.51082" lon="3.4755">
        <ele>22.439683</ele>
        <time>2020-05-27T20:21:39.720Z</time>
      </trkpt>
      <trkpt lat="50.51104" lon="3.47596">
        <ele>22.250542</ele>
        <time>2020-05-27T20:21:44.384Z</time>
      </trkpt>
      <trkpt lat="50.5111" lon="3.47622">
        <ele>22.171273</ele>
        <time>2020-05-27T20:21:46.595Z</time>
      </trkpt>
      <trkpt lat="50.51109" lon="3.47654">
        <ele>22.08215</ele>
        <time>2020-05-27T20:21:49.303Z</time>
      </trkpt>
      <trkpt lat="50.51104" lon="3.47687">
        <ele>21.9864</ele>
        <time>2020-05-27T20:21:52.039Z</time>
      </trkpt>
      <trkpt lat="50.5108" lon="3.47774">
        <ele>21.717223</ele>
        <time>2020-05-27T20:22:00.311Z</time>
      </trkpt>
      <trkpt lat="50.51082" lon="3.47786">
        <ele>21.683501</ele>
        <time>2020-05-27T20:22:01.226Z</time>
      </trkpt>
      <trkpt lat="50.5109" lon="3.47798">
        <ele>21.63314</ele>
        <time>2020-05-27T20:22:03.009Z</time>
      </trkpt>
      <trkpt lat="50.51109" lon="3.47824">
        <ele>21.522928</ele>
        <time>2020-05-27T20:22:06.394Z</time>
      </trkpt>
      <trkpt lat="50.51122" lon="3.47856">
        <ele>21.506369</ele>
        <time>2020-05-27T20:22:10.157Z</time>
      </trkpt>
      <trkpt lat="50.51125" lon="3.47964">
        <ele>21.490031</ele>
        <time>2020-05-27T20:22:20.260Z</time>
      </trkpt>
      <trkpt lat="50.51129" lon="3.48001">
        <ele>21.484352</ele>
        <time>2020-05-27T20:22:23.684Z</time>
      </trkpt>
      <trkpt lat="50.51132" lon="3.48019">
        <ele>21.481555</ele>
        <time>2020-05-27T20:22:25.698Z</time>
      </trkpt>
      <trkpt lat="50.51138" lon="3.48111">
        <ele>21.471073</ele>
        <time>2020-05-27T20:22:34.496Z</time>
      </trkpt>
      <trkpt lat="50.51143" lon="3.48169">
        <ele>21.486297</ele>
        <time>2020-05-27T20:22:39.969Z</time>
      </trkpt>
      <trkpt lat="50.51135" lon="3.48237">
        <ele>21.504272</ele>
        <time>2020-05-27T20:22:46.414Z</time>
      </trkpt>
      <trkpt lat="50.5113" lon="3.48251">
        <ele>21.508273</ele>
        <time>2020-05-27T20:22:47.879Z</time>
      </trkpt>
      <trkpt lat="50.5112" lon="3.48278">
        <ele>21.516559</ele>
        <time>2020-05-27T20:22:50.661Z</time>
      </trkpt>
      <trkpt lat="50.511" lon="3.48334">
        <ele>21.533344</ele>
        <time>2020-05-27T20:22:56.855Z</time>
      </trkpt>
      <trkpt lat="50.51092" lon="3.48355">
        <ele>21.539499</ele>
        <time>2020-05-27T20:22:59.293Z</time>
      </trkpt>
      <trkpt lat="50.51087" lon="3.48377">
        <ele>21.554</ele>
        <time>2020-05-27T20:23:01.668Z</time>
      </trkpt>
      <trkpt lat="50.51082" lon="3.4846">
        <ele>21.63173</ele>
        <time>2020-05-27T20:23:10.684Z</time>
      </trkpt>
      <trkpt lat="50.5108" lon="3.48506">
        <ele>21.674898</ele>
        <time>2020-05-27T20:23:15.171Z</time>
      </trkpt>
      <trkpt lat="50.51082" lon="3.48534">
        <ele>21.700971</ele>
        <time>2020-05-27T20:23:18.056Z</time>
      </trkpt>
      <trkpt lat="50.51087" lon="3.48604">
        <ele>21.766654</ele>
        <time>2020-05-27T20:23:24.719Z</time>
      </trkpt>
      <trkpt lat="50.51084" lon="3.48625">
        <ele>21.786838</ele>
        <time>2020-05-27T20:23:26.925Z</time>
      </trkpt>
      <trkpt lat="50.51065" lon="3.48691">
        <ele>21.584329</ele>
        <time>2020-05-27T20:23:33.591Z</time>
      </trkpt>
      <trkpt lat="50.51052" lon="3.48729">
        <ele>21.396448</ele>
        <time>2020-05-27T20:23:37.449Z</time>
      </trkpt>
      <trkpt lat="50.51035" lon="3.48756">
        <ele>21.234656</ele>
        <time>2020-05-27T20:23:40.618Z</time>
      </trkpt>
      <trkpt lat="50.51022" lon="3.48759">
        <ele>21.141858</ele>
        <time>2020-05-27T20:23:42.413Z</time>
      </trkpt>
      <trkpt lat="50.5095" lon="3.4873">
        <ele>20.640673</ele>
        <time>2020-05-27T20:23:51.231Z</time>
      </trkpt>
      <trkpt lat="50.50894" lon="3.48736">
        <ele>20.018349</ele>
        <time>2020-05-27T20:23:57.837Z</time>
      </trkpt>
      <trkpt lat="50.50863" lon="3.48799">
        <ele>19.415203</ele>
        <time>2020-05-27T20:24:03.865Z</time>
      </trkpt>
      <trkpt lat="50.50851" lon="3.48822">
        <ele>19.196829</ele>
        <time>2020-05-27T20:24:06.083Z</time>
      </trkpt>
      <trkpt lat="50.50848" lon="3.48828">
        <ele>19.134758</ele>
        <time>2020-05-27T20:24:06.700Z</time>
      </trkpt>
      <trkpt lat="50.50829" lon="3.48861">
        <ele>18.799216</ele>
        <time>2020-05-27T20:24:10.117Z</time>
      </trkpt>
      <trkpt lat="50.50795" lon="3.48891">
        <ele>18.387465</ele>
        <time>2020-05-27T20:24:14.806Z</time>
      </trkpt>
      <trkpt lat="50.50772" lon="3.48889">
        <ele>18.226209</ele>
        <time>2020-05-27T20:24:17.622Z</time>
      </trkpt>
      <trkpt lat="50.50762" lon="3.48885">
        <ele>18.154057</ele>
        <time>2020-05-27T20:24:18.897Z</time>
      </trkpt>
      <trkpt lat="50.5075" lon="3.48876">
        <ele>18.060518</ele>
        <time>2020-05-27T20:24:20.531Z</time>
      </trkpt>
      <trkpt lat="50.50697" lon="3.48851">
        <ele>17.671117</ele>
        <time>2020-05-27T20:24:27.802Z</time>
      </trkpt>
      <trkpt lat="50.50675" lon="3.48848">
        <ele>17.520691</ele>
        <time>2020-05-27T20:24:30.607Z</time>
      </trkpt>
      <trkpt lat="50.50664" lon="3.48854">
        <ele>17.436521</ele>
        <time>2020-05-27T20:24:32.241Z</time>
      </trkpt>
      <trkpt lat="50.50654" lon="3.48871">
        <ele>17.332278</ele>
        <time>2020-05-27T20:24:34.181Z</time>
      </trkpt>
      <trkpt lat="50.5064" lon="3.48922">
        <ele>17.144899</ele>
        <time>2020-05-27T20:24:38.813Z</time>
      </trkpt>
      <trkpt lat="50.50629" lon="3.48944">
        <ele>17.086067</ele>
        <time>2020-05-27T20:24:41.236Z</time>
      </trkpt>
      <trkpt lat="50.50551" lon="3.4902">
        <ele>16.783728</ele>
        <time>2020-05-27T20:24:53.941Z</time>
      </trkpt>
      <trkpt lat="50.50468" lon="3.49131">
        <ele>16.563418</ele>
        <time>2020-05-27T20:25:09.107Z</time>
      </trkpt>
      <trkpt lat="50.50399" lon="3.49173">
        <ele>16.503767</ele>
        <time>2020-05-27T20:25:19.846Z</time>
      </trkpt>
      <trkpt lat="50.5033" lon="3.49228">
        <ele>16.462896</ele>
        <time>2020-05-27T20:25:31.720Z</time>
      </trkpt>
      <trkpt lat="50.50301" lon="3.49249">
        <ele>16.4632</ele>
        <time>2020-05-27T20:25:36.648Z</time>
      </trkpt>
      <trkpt lat="50.50284" lon="3.49261">
        <ele>16.463377</ele>
        <time>2020-05-27T20:25:39.455Z</time>
      </trkpt>
      <trkpt lat="50.50222" lon="3.493">
        <ele>16.464004</ele>
        <time>2020-05-27T20:25:49.393Z</time>
      </trkpt>
      <trkpt lat="50.50222" lon="3.493">
        <ele>16.464004</ele>
        <time>2020-05-27T20:25:49.444Z</time>
      </trkpt>
      <trkpt lat="50.50197" lon="3.49315">
        <ele>16.464251</ele>
        <time>2020-05-27T20:25:53.269Z</time>
      </trkpt>
      <trkpt lat="50.50191" lon="3.49319">
        <ele>16.464316</ele>
        <time>2020-05-27T20:25:54.319Z</time>
      </trkpt>
      <trkpt lat="50.50184" lon="3.49323">
        <ele>16.458925</ele>
        <time>2020-05-27T20:25:55.329Z</time>
      </trkpt>
      <trkpt lat="50.50056" lon="3.49423">
        <ele>16.280721</ele>
        <time>2020-05-27T20:26:15.268Z</time>
      </trkpt>
      <trkpt lat="50.49891" lon="3.49621">
        <ele>16.42043</ele>
        <time>2020-05-27T20:26:46.669Z</time>
      </trkpt>
      <trkpt lat="50.49885" lon="3.49626">
        <ele>16.430327</ele>
        <time>2020-05-27T20:26:47.731Z</time>
      </trkpt>
      <trkpt lat="50.49872" lon="3.49635">
        <ele>16.49141</ele>
        <time>2020-05-27T20:26:50.248Z</time>
      </trkpt>
      <trkpt lat="50.49868" lon="3.49638">
        <ele>16.50651</ele>
        <time>2020-05-27T20:26:50.850Z</time>
      </trkpt>
      <trkpt lat="50.4984" lon="3.49655">
        <ele>16.628858</ele>
        <time>2020-05-27T20:26:55.950Z</time>
      </trkpt>
      <trkpt lat="50.49786" lon="3.49689">
        <ele>16.867679</ele>
        <time>2020-05-27T20:27:05.938Z</time>
      </trkpt>
      <trkpt lat="50.49674" lon="3.49784">
        <ele>17.115125</ele>
        <time>2020-05-27T20:27:26.661Z</time>
      </trkpt>
      <trkpt lat="50.49561" lon="3.49862">
        <ele>17.017501</ele>
        <time>2020-05-27T20:27:43.938Z</time>
      </trkpt>
      <trkpt lat="50.49552" lon="3.49866">
        <ele>16.968526</ele>
        <time>2020-05-27T20:27:45.238Z</time>
      </trkpt>
      <trkpt lat="50.49546" lon="3.49865">
        <ele>16.941021</ele>
        <time>2020-05-27T20:27:45.878Z</time>
      </trkpt>
      <trkpt lat="50.49496" lon="3.49786">
        <ele>16.572675</ele>
        <time>2020-05-27T20:27:55.198Z</time>
      </trkpt>
      <trkpt lat="50.49442" lon="3.49791">
        <ele>16.289114</ele>
        <time>2020-05-27T20:28:02.255Z</time>
      </trkpt>
      <trkpt lat="50.4937" lon="3.49783">
        <ele>16.093673</ele>
        <time>2020-05-27T20:28:11.851Z</time>
      </trkpt>
      <trkpt lat="50.49356" lon="3.49781">
        <ele>16.099276</ele>
        <time>2020-05-27T20:28:13.808Z</time>
      </trkpt>
      <trkpt lat="50.49327" lon="3.49756">
        <ele>16.112078</ele>
        <time>2020-05-27T20:28:18.776Z</time>
      </trkpt>
      <trkpt lat="50.49308" lon="3.49756">
        <ele>16.119246</ele>
        <time>2020-05-27T20:28:21.748Z</time>
      </trkpt>
      <trkpt lat="50.49288" lon="3.49767">
        <ele>16.127483</ele>
        <time>2020-05-27T20:28:25.076Z</time>
      </trkpt>
      <trkpt lat="50.49284" lon="3.49771">
        <ele>16.129406</ele>
        <time>2020-05-27T20:28:25.881Z</time>
      </trkpt>
      <trkpt lat="50.49282" lon="3.49773">
        <ele>16.130391</ele>
        <time>2020-05-27T20:28:26.442Z</time>
      </trkpt>
      <trkpt lat="50.49208" lon="3.49841">
        <ele>16.252347</ele>
        <time>2020-05-27T20:28:39.954Z</time>
      </trkpt>
      <trkpt lat="50.49201" lon="3.49848">
        <ele>16.279715</ele>
        <time>2020-05-27T20:28:41.492Z</time>
      </trkpt>
      <trkpt lat="50.49196" lon="3.49853">
        <ele>16.296902</ele>
        <time>2020-05-27T20:28:42.365Z</time>
      </trkpt>
      <trkpt lat="50.49191" lon="3.49853">
        <ele>16.314446</ele>
        <time>2020-05-27T20:28:43.333Z</time>
      </trkpt>
      <trkpt lat="50.49094" lon="3.49838">
        <ele>16.618494</ele>
        <time>2020-05-27T20:28:59.369Z</time>
      </trkpt>
      <trkpt lat="50.49082" lon="3.49844">
        <ele>16.658722</ele>
        <time>2020-05-27T20:29:01.408Z</time>
      </trkpt>
      <trkpt lat="50.49" lon="3.49921">
        <ele>16.515205</ele>
        <time>2020-05-27T20:29:15.072Z</time>
      </trkpt>
      <trkpt lat="50.48953" lon="3.49914">
        <ele>16.394514</ele>
        <time>2020-05-27T20:29:21.378Z</time>
      </trkpt>
      <trkpt lat="50.4895" lon="3.49913">
        <ele>16.386996</ele>
        <time>2020-05-27T20:29:21.707Z</time>
      </trkpt>
      <trkpt lat="50.48934" lon="3.49909">
        <ele>16.345405</ele>
        <time>2020-05-27T20:29:23.908Z</time>
      </trkpt>
      <trkpt lat="50.48927" lon="3.49907">
        <ele>16.326183</ele>
        <time>2020-05-27T20:29:24.940Z</time>
      </trkpt>
      <trkpt lat="50.48914" lon="3.49904">
        <ele>16.293149</ele>
        <time>2020-05-27T20:29:26.677Z</time>
      </trkpt>
      <trkpt lat="50.48911" lon="3.49902">
        <ele>16.283818</ele>
        <time>2020-05-27T20:29:27.224Z</time>
      </trkpt>
      <trkpt lat="50.48908" lon="3.49897">
        <ele>16.272401</ele>
        <time>2020-05-27T20:29:27.767Z</time>
      </trkpt>
      <trkpt lat="50.48906" lon="3.49893">
        <ele>16.262875</ele>
        <time>2020-05-27T20:29:28.313Z</time>
      </trkpt>
      <trkpt lat="50.48879" lon="3.49766">
        <ele>16.052362</ele>
        <time>2020-05-27T20:29:40.140Z</time>
      </trkpt>
      <trkpt lat="50.4887" lon="3.49728">
        <ele>15.989885</ele>
        <time>2020-05-27T20:29:43.674Z</time>
      </trkpt>
      <trkpt lat="50.48861" lon="3.49706">
        <ele>15.947196</ele>
        <time>2020-05-27T20:29:46.211Z</time>
      </trkpt>
      <trkpt lat="50.48847" lon="3.49688">
        <ele>15.902921</ele>
        <time>2020-05-27T20:29:48.669Z</time>
      </trkpt>
      <trkpt lat="50.48765" lon="3.49649">
        <ele>15.780911</ele>
        <time>2020-05-27T20:30:00.888Z</time>
      </trkpt>
      <trkpt lat="50.48736" lon="3.49611">
        <ele>15.75981</ele>
        <time>2020-05-27T20:30:06.409Z</time>
      </trkpt>
      <trkpt lat="50.48731" lon="3.4961">
        <ele>15.756555</ele>
        <time>2020-05-27T20:30:07.236Z</time>
      </trkpt>
      <trkpt lat="50.48684" lon="3.49642">
        <ele>15.727908</ele>
        <time>2020-05-27T20:30:14.596Z</time>
      </trkpt>
      <trkpt lat="50.48628" lon="3.49654">
        <ele>15.753617</ele>
        <time>2020-05-27T20:30:22.922Z</time>
      </trkpt>
      <trkpt lat="50.48604" lon="3.49668">
        <ele>15.822732</ele>
        <time>2020-05-27T20:30:26.882Z</time>
      </trkpt>
      <trkpt lat="50.4857" lon="3.49704">
        <ele>15.93265</ele>
        <time>2020-05-27T20:30:33.772Z</time>
      </trkpt>
      <trkpt lat="50.48526" lon="3.49777">
        <ele>16.103238</ele>
        <time>2020-05-27T20:30:44.235Z</time>
      </trkpt>
      <trkpt lat="50.4851" lon="3.49792">
        <ele>16.152157</ele>
        <time>2020-05-27T20:30:47.262Z</time>
      </trkpt>
      <trkpt lat="50.48497" lon="3.49796">
        <ele>16.185984</ele>
        <time>2020-05-27T20:30:49.335Z</time>
      </trkpt>
      <trkpt lat="50.48475" lon="3.49799">
        <ele>16.157323</ele>
        <time>2020-05-27T20:30:52.840Z</time>
      </trkpt>
      <trkpt lat="50.4847" lon="3.498">
        <ele>16.150239</ele>
        <time>2020-05-27T20:30:53.654Z</time>
      </trkpt>
      <trkpt lat="50.48464" lon="3.49803">
        <ele>16.141615</ele>
        <time>2020-05-27T20:30:54.625Z</time>
      </trkpt>
      <trkpt lat="50.48456" lon="3.4981">
        <ele>16.129223</ele>
        <time>2020-05-27T20:30:56.065Z</time>
      </trkpt>
      <trkpt lat="50.48417" lon="3.49873">
        <ele>16.055673</ele>
        <time>2020-05-27T20:31:04.434Z</time>
      </trkpt>
      <trkpt lat="50.48317" lon="3.50036">
        <ele>15.577767</ele>
        <time>2020-05-27T20:31:23.584Z</time>
      </trkpt>
      <trkpt lat="50.48314" lon="3.50065">
        <ele>15.467872</ele>
        <time>2020-05-27T20:31:25.941Z</time>
      </trkpt>
      <trkpt lat="50.48334" lon="3.50155">
        <ele>15.109183</ele>
        <time>2020-05-27T20:31:33.746Z</time>
      </trkpt>
      <trkpt lat="50.48334" lon="3.50262">
        <ele>14.814195</ele>
        <time>2020-05-27T20:31:42.635Z</time>
      </trkpt>
      <trkpt lat="50.48195" lon="3.50547">
        <ele>14.51133</ele>
        <time>2020-05-27T20:32:15.285Z</time>
      </trkpt>
      <trkpt lat="50.48156" lon="3.50601">
        <ele>14.558349</ele>
        <time>2020-05-27T20:32:23.516Z</time>
      </trkpt>
      <trkpt lat="50.48134" lon="3.50632">
        <ele>14.585246</ele>
        <time>2020-05-27T20:32:28.368Z</time>
      </trkpt>
      <trkpt lat="50.48087" lon="3.50718">
        <ele>14.864315</ele>
        <time>2020-05-27T20:32:40.274Z</time>
      </trkpt>
      <trkpt lat="50.48047" lon="3.50871">
        <ele>15.383957</ele>
        <time>2020-05-27T20:32:58.187Z</time>
      </trkpt>
      <trkpt lat="50.47986" lon="3.50967">
        <ele>15.863035</ele>
        <time>2020-05-27T20:33:12.727Z</time>
      </trkpt>
      <trkpt lat="50.47952" lon="3.51044">
        <ele>16.207711</ele>
        <time>2020-05-27T20:33:22.902Z</time>
      </trkpt>
      <trkpt lat="50.47858" lon="3.51324">
        <ele>17.349623</ele>
        <time>2020-05-27T20:33:57.594Z</time>
      </trkpt>
      <trkpt lat="50.47824" lon="3.51488">
        <ele>17.682003</ele>
        <time>2020-05-27T20:34:15.856Z</time>
      </trkpt>
      <trkpt lat="50.47785" lon="3.51628">
        <ele>17.864399</ele>
        <time>2020-05-27T20:34:30.739Z</time>
      </trkpt>
      <trkpt lat="50.47784" lon="3.51643">
        <ele>17.860761</ele>
        <time>2020-05-27T20:34:32.143Z</time>
      </trkpt>
      <trkpt lat="50.47784" lon="3.5165">
        <ele>17.836798</ele>
        <time>2020-05-27T20:34:32.779Z</time>
      </trkpt>
      <trkpt lat="50.47783" lon="3.51663">
        <ele>17.792829</ele>
        <time>2020-05-27T20:34:33.968Z</time>
      </trkpt>
      <trkpt lat="50.47774" lon="3.51664">
        <ele>17.746497</ele>
        <time>2020-05-27T20:34:35.566Z</time>
      </trkpt>
      <trkpt lat="50.47726" lon="3.51668">
        <ele>17.484728</ele>
        <time>2020-05-27T20:34:44.622Z</time>
      </trkpt>
      <trkpt lat="50.47675" lon="3.51675">
        <ele>17.211357</ele>
        <time>2020-05-27T20:34:53.915Z</time>
      </trkpt>
      <trkpt lat="50.47619" lon="3.51684">
        <ele>16.908257</ele>
        <time>2020-05-27T20:35:04.013Z</time>
      </trkpt>
      <trkpt lat="50.47604" lon="3.51687">
        <ele>16.870918</ele>
        <time>2020-05-27T20:35:06.757Z</time>
      </trkpt>
      <trkpt lat="50.47587" lon="3.51707">
        <ele>16.820667</ele>
        <time>2020-05-27T20:35:10.468Z</time>
      </trkpt>
      <trkpt lat="50.47527" lon="3.51799">
        <ele>16.61635</ele>
        <time>2020-05-27T20:35:26.119Z</time>
      </trkpt>
      <trkpt lat="50.47496" lon="3.51846">
        <ele>16.512811</ele>
        <time>2020-05-27T20:35:34.931Z</time>
      </trkpt>
      <trkpt lat="50.47462" lon="3.5188">
        <ele>16.697234</ele>
        <time>2020-05-27T20:35:44.002Z</time>
      </trkpt>
      <trkpt lat="50.47393" lon="3.51949">
        <ele>17.448096</ele>
        <time>2020-05-27T20:36:03.814Z</time>
      </trkpt>
      <trkpt lat="50.47369" lon="3.51978">
        <ele>17.729018</ele>
        <time>2020-05-27T20:36:11.482Z</time>
      </trkpt>
      <trkpt lat="50.47331" lon="3.5204">
        <ele>18.222602</ele>
        <time>2020-05-27T20:36:24.785Z</time>
      </trkpt>
      <trkpt lat="50.47323" lon="3.52048">
        <ele>18.300222</ele>
        <time>2020-05-27T20:36:27.460Z</time>
      </trkpt>
      <trkpt lat="50.47303" lon="3.52064">
        <ele>18.483456</ele>
        <time>2020-05-27T20:36:32.687Z</time>
      </trkpt>
      <trkpt lat="50.47268" lon="3.52088">
        <ele>18.798834</ele>
        <time>2020-05-27T20:36:42.342Z</time>
      </trkpt>
      <trkpt lat="50.47255" lon="3.52101">
        <ele>18.921086</ele>
        <time>2020-05-27T20:36:46.420Z</time>
      </trkpt>
      <trkpt lat="50.47248" lon="3.52111">
        <ele>19.000229</ele>
        <time>2020-05-27T20:36:48.589Z</time>
      </trkpt>
      <trkpt lat="50.4724" lon="3.5211">
        <ele>19.069182</ele>
        <time>2020-05-27T20:36:50.352Z</time>
      </trkpt>
      <trkpt lat="50.47223" lon="3.52117">
        <ele>19.20947</ele>
        <time>2020-05-27T20:36:54.609Z</time>
      </trkpt>
      <trkpt lat="50.4718" lon="3.52157">
        <ele>19.591586</ele>
        <time>2020-05-27T20:37:05.493Z</time>
      </trkpt>
      <trkpt lat="50.47123" lon="3.52206">
        <ele>19.290313</ele>
        <time>2020-05-27T20:37:18.574Z</time>
      </trkpt>
      <trkpt lat="50.47112" lon="3.52214">
        <ele>19.237453</ele>
        <time>2020-05-27T20:37:20.626Z</time>
      </trkpt>
      <trkpt lat="50.47106" lon="3.52218">
        <ele>19.206741</ele>
        <time>2020-05-27T20:37:21.847Z</time>
      </trkpt>
      <trkpt lat="50.47043" lon="3.5234">
        <ele>18.73364</ele>
        <time>2020-05-27T20:37:39.472Z</time>
      </trkpt>
      <trkpt lat="50.47003" lon="3.52294">
        <ele>18.39815</ele>
        <time>2020-05-27T20:37:45.743Z</time>
      </trkpt>
      <trkpt lat="50.46989" lon="3.52278">
        <ele>18.282676</ele>
        <time>2020-05-27T20:37:47.938Z</time>
      </trkpt>
      <trkpt lat="50.46985" lon="3.52273">
        <ele>18.251033</ele>
        <time>2020-05-27T20:37:48.579Z</time>
      </trkpt>
      <trkpt lat="50.46961" lon="3.52246">
        <ele>18.053538</ele>
        <time>2020-05-27T20:37:52.335Z</time>
      </trkpt>
      <trkpt lat="50.46903" lon="3.52179">
        <ele>17.568228</ele>
        <time>2020-05-27T20:38:01.660Z</time>
      </trkpt>
      <trkpt lat="50.46859" lon="3.52136">
        <ele>17.58853</ele>
        <time>2020-05-27T20:38:09.087Z</time>
      </trkpt>
      <trkpt lat="50.46795" lon="3.52081">
        <ele>17.622002</ele>
        <time>2020-05-27T20:38:20.897Z</time>
      </trkpt>
      <trkpt lat="50.46702" lon="3.52009">
        <ele>17.710031</ele>
        <time>2020-05-27T20:38:36.522Z</time>
      </trkpt>
      <trkpt lat="50.46599" lon="3.5194">
        <ele>17.855219</ele>
        <time>2020-05-27T20:38:53.724Z</time>
      </trkpt>
      <trkpt lat="50.46568" lon="3.51907">
        <ele>17.930654</ele>
        <time>2020-05-27T20:38:59.611Z</time>
      </trkpt>
      <trkpt lat="50.46439" lon="3.5173">
        <ele>18.414752</ele>
        <time>2020-05-27T20:39:27.042Z</time>
      </trkpt>
      <trkpt lat="50.46372" lon="3.51656">
        <ele>18.67329</ele>
        <time>2020-05-27T20:39:40.258Z</time>
      </trkpt>
      <trkpt lat="50.46353" lon="3.51643">
        <ele>18.737901</ele>
        <time>2020-05-27T20:39:43.654Z</time>
      </trkpt>
      <trkpt lat="50.46343" lon="3.51672">
        <ele>18.80485</ele>
        <time>2020-05-27T20:39:46.995Z</time>
      </trkpt>
      <trkpt lat="50.46277" lon="3.51833">
        <ele>19.11727</ele>
        <time>2020-05-27T20:40:06.671Z</time>
      </trkpt>
      <trkpt lat="50.46227" lon="3.52002">
        <ele>19.327223</ele>
        <time>2020-05-27T20:40:25.301Z</time>
      </trkpt>
      <trkpt lat="50.46192" lon="3.52082">
        <ele>19.234927</ele>
        <time>2020-05-27T20:40:34.480Z</time>
      </trkpt>
      <trkpt lat="50.46142" lon="3.52179">
        <ele>19.116246</ele>
        <time>2020-05-27T20:40:45.465Z</time>
      </trkpt>
      <trkpt lat="50.46125" lon="3.52213">
        <ele>19.071977</ele>
        <time>2020-05-27T20:40:49.106Z</time>
      </trkpt>
      <trkpt lat="50.46103" lon="3.52267">
        <ele>18.947955</ele>
        <time>2020-05-27T20:40:54.753Z</time>
      </trkpt>
      <trkpt lat="50.46093" lon="3.52304">
        <ele>18.87128</ele>
        <time>2020-05-27T20:40:58.139Z</time>
      </trkpt>
      <trkpt lat="50.4609" lon="3.52315">
        <ele>18.848165</ele>
        <time>2020-05-27T20:40:59.201Z</time>
      </trkpt>
      <trkpt lat="50.46044" lon="3.52616">
        <ele>18.596473</ele>
        <time>2020-05-27T20:41:26.727Z</time>
      </trkpt>
      <trkpt lat="50.46036" lon="3.52652">
        <ele>18.611028</ele>
        <time>2020-05-27T20:41:30.559Z</time>
      </trkpt>
      <trkpt lat="50.46006" lon="3.52747">
        <ele>18.699742</ele>
        <time>2020-05-27T20:41:41.905Z</time>
      </trkpt>
      <trkpt lat="50.45992" lon="3.52777">
        <ele>18.892235</ele>
        <time>2020-05-27T20:41:45.819Z</time>
      </trkpt>
      <trkpt lat="50.45942" lon="3.52731">
        <ele>19.375147</ele>
        <time>2020-05-27T20:41:56.089Z</time>
      </trkpt>
      <trkpt lat="50.45747" lon="3.52559">
        <ele>21.129645</ele>
        <time>2020-05-27T20:42:38.377Z</time>
      </trkpt>
      <trkpt lat="50.45717" lon="3.52524">
        <ele>21.407362</ele>
        <time>2020-05-27T20:42:44.428Z</time>
      </trkpt>
      <trkpt lat="50.45677" lon="3.52459">
        <ele>21.30872</ele>
        <time>2020-05-27T20:42:53.055Z</time>
      </trkpt>
      <trkpt lat="50.45668" lon="3.52446">
        <ele>21.259843</ele>
        <time>2020-05-27T20:42:54.711Z</time>
      </trkpt>
      <trkpt lat="50.45655" lon="3.52443">
        <ele>21.207632</ele>
        <time>2020-05-27T20:42:56.568Z</time>
      </trkpt>
      <trkpt lat="50.45655" lon="3.52478">
        <ele>21.118493</ele>
        <time>2020-05-27T20:42:59.473Z</time>
      </trkpt>
      <trkpt lat="50.45654" lon="3.52492">
        <ele>21.08168</ele>
        <time>2020-05-27T20:43:00.690Z</time>
      </trkpt>
      <trkpt lat="50.45653" lon="3.52538">
        <ele>20.963314</ele>
        <time>2020-05-27T20:43:04.431Z</time>
      </trkpt>
      <trkpt lat="50.45644" lon="3.52847">
        <ele>20.010309</ele>
        <time>2020-05-27T20:43:29.570Z</time>
      </trkpt>
      <trkpt lat="50.45642" lon="3.52919">
        <ele>19.916265</ele>
        <time>2020-05-27T20:43:36.552Z</time>
      </trkpt>
      <trkpt lat="50.45632" lon="3.53265">
        <ele>20.847108</ele>
        <time>2020-05-27T20:44:13.969Z</time>
      </trkpt>
      <trkpt lat="50.45625" lon="3.53455">
        <ele>21.402382</ele>
        <time>2020-05-27T20:44:34.200Z</time>
      </trkpt>
      <trkpt lat="50.45621" lon="3.53492">
        <ele>21.4907</ele>
        <time>2020-05-27T20:44:38.037Z</time>
      </trkpt>
      <trkpt lat="50.4562" lon="3.53507">
        <ele>21.524484</ele>
        <time>2020-05-27T20:44:39.548Z</time>
      </trkpt>
      <trkpt lat="50.4562" lon="3.5351">
        <ele>21.531873</ele>
        <time>2020-05-27T20:44:40.012Z</time>
      </trkpt>
      <trkpt lat="50.45607" lon="3.53571">
        <ele>21.677728</ele>
        <time>2020-05-27T20:44:46.639Z</time>
      </trkpt>
      <trkpt lat="50.45595" lon="3.53629">
        <ele>21.81835</ele>
        <time>2020-05-27T20:44:53.102Z</time>
      </trkpt>
      <trkpt lat="50.45542" lon="3.53874">
        <ele>21.967237</ele>
        <time>2020-05-27T20:45:19.270Z</time>
      </trkpt>
      <trkpt lat="50.45531" lon="3.5392">
        <ele>21.937409</ele>
        <time>2020-05-27T20:45:23.730Z</time>
      </trkpt>
      <trkpt lat="50.45518" lon="3.53952">
        <ele>21.913996</ele>
        <time>2020-05-27T20:45:27.137Z</time>
      </trkpt>
      <trkpt lat="50.45516" lon="3.53956">
        <ele>21.911121</ele>
        <time>2020-05-27T20:45:27.558Z</time>
      </trkpt>
      <trkpt lat="50.45413" lon="3.54163">
        <ele>20.713791</ele>
        <time>2020-05-27T20:45:48.385Z</time>
      </trkpt>
      <trkpt lat="50.45402" lon="3.54212">
        <ele>20.442295</ele>
        <time>2020-05-27T20:45:52.373Z</time>
      </trkpt>
      <trkpt lat="50.45382" lon="3.54342">
        <ele>20.407807</ele>
        <time>2020-05-27T20:46:03.643Z</time>
      </trkpt>
      <trkpt lat="50.45376" lon="3.5438">
        <ele>20.406544</ele>
        <time>2020-05-27T20:46:07.503Z</time>
      </trkpt>
      <trkpt lat="50.45363" lon="3.5443">
        <ele>20.404794</ele>
        <time>2020-05-27T20:46:13.108Z</time>
      </trkpt>
      <trkpt lat="50.45352" lon="3.54445">
        <ele>20.404055</ele>
        <time>2020-05-27T20:46:15.510Z</time>
      </trkpt>
      <trkpt lat="50.45349" lon="3.54451">
        <ele>20.4038</ele>
        <time>2020-05-27T20:46:16.394Z</time>
      </trkpt>
      <trkpt lat="50.4527" lon="3.54577">
        <ele>21.191675</ele>
        <time>2020-05-27T20:46:37.816Z</time>
      </trkpt>
      <trkpt lat="50.45198" lon="3.5469">
        <ele>21.896759</ele>
        <time>2020-05-27T20:46:56.413Z</time>
      </trkpt>
      <trkpt lat="50.45161" lon="3.54745">
        <ele>21.805608</ele>
        <time>2020-05-27T20:47:04.132Z</time>
      </trkpt>
      <trkpt lat="50.45131" lon="3.54811">
        <ele>21.712768</ele>
        <time>2020-05-27T20:47:11.229Z</time>
      </trkpt>
      <trkpt lat="50.45077" lon="3.54935">
        <ele>21.38406</ele>
        <time>2020-05-27T20:47:23.586Z</time>
      </trkpt>
      <trkpt lat="50.44858" lon="3.55448">
        <ele>19.239693</ele>
        <time>2020-05-27T20:48:14.407Z</time>
      </trkpt>
      <trkpt lat="50.44812" lon="3.55538">
        <ele>19.223781</ele>
        <time>2020-05-27T20:48:25.742Z</time>
      </trkpt>
      <trkpt lat="50.44802" lon="3.55553">
        <ele>19.22084</ele>
        <time>2020-05-27T20:48:28.238Z</time>
      </trkpt>
      <trkpt lat="50.44797" lon="3.55553">
        <ele>19.219734</ele>
        <time>2020-05-27T20:48:29.311Z</time>
      </trkpt>
      <trkpt lat="50.44792" lon="3.55554">
        <ele>19.218585</ele>
        <time>2020-05-27T20:48:30.446Z</time>
      </trkpt>
      <trkpt lat="50.44787" lon="3.55557">
        <ele>19.217499</ele>
        <time>2020-05-27T20:48:31.469Z</time>
      </trkpt>
      <trkpt lat="50.44784" lon="3.5556">
        <ele>19.216726</ele>
        <time>2020-05-27T20:48:32.166Z</time>
      </trkpt>
      <trkpt lat="50.44777" lon="3.55579">
        <ele>19.257597</ele>
        <time>2020-05-27T20:48:35.427Z</time>
      </trkpt>
      <trkpt lat="50.44777" lon="3.55586">
        <ele>19.285404</ele>
        <time>2020-05-27T20:48:36.486Z</time>
      </trkpt>
      <trkpt lat="50.44777" lon="3.55593">
        <ele>19.312813</ele>
        <time>2020-05-27T20:48:37.445Z</time>
      </trkpt>
      <trkpt lat="50.4478" lon="3.55606">
        <ele>19.36748</ele>
        <time>2020-05-27T20:48:39.404Z</time>
      </trkpt>
      <trkpt lat="50.44781" lon="3.55607">
        <ele>19.376833</ele>
        <time>2020-05-27T20:48:39.700Z</time>
      </trkpt>
      <trkpt lat="50.4477" lon="3.55653">
        <ele>19.571151</ele>
        <time>2020-05-27T20:48:45.526Z</time>
      </trkpt>
      <trkpt lat="50.44738" lon="3.55727">
        <ele>19.919051</ele>
        <time>2020-05-27T20:48:55.874Z</time>
      </trkpt>
      <trkpt lat="50.44734" lon="3.55735">
        <ele>19.958762</ele>
        <time>2020-05-27T20:48:57.036Z</time>
      </trkpt>
      <trkpt lat="50.44708" lon="3.55796">
        <ele>20.246509</ele>
        <time>2020-05-27T20:49:04.778Z</time>
      </trkpt>
      <trkpt lat="50.44696" lon="3.55823">
        <ele>20.328658</ele>
        <time>2020-05-27T20:49:08.251Z</time>
      </trkpt>
      <trkpt lat="50.4468" lon="3.55863">
        <ele>20.3541</ele>
        <time>2020-05-27T20:49:13.259Z</time>
      </trkpt>
      <trkpt lat="50.44669" lon="3.55887">
        <ele>20.370067</ele>
        <time>2020-05-27T20:49:16.435Z</time>
      </trkpt>
      <trkpt lat="50.44664" lon="3.55895">
        <ele>20.376242</ele>
        <time>2020-05-27T20:49:17.588Z</time>
      </trkpt>
      <trkpt lat="50.44481" lon="3.56212">
        <ele>20.345899</ele>
        <time>2020-05-27T20:49:56.758Z</time>
      </trkpt>
      <trkpt lat="50.44437" lon="3.56289">
        <ele>20.373975</ele>
        <time>2020-05-27T20:50:06.634Z</time>
      </trkpt>
      <trkpt lat="50.44407" lon="3.5634">
        <ele>20.422905</ele>
        <time>2020-05-27T20:50:13.663Z</time>
      </trkpt>
      <trkpt lat="50.44323" lon="3.56462">
        <ele>20.466124</ele>
        <time>2020-05-27T20:50:31.313Z</time>
      </trkpt>
      <trkpt lat="50.4426" lon="3.56536">
        <ele>20.265094</ele>
        <time>2020-05-27T20:50:42.463Z</time>
      </trkpt>
      <trkpt lat="50.44186" lon="3.56622">
        <ele>19.991547</ele>
        <time>2020-05-27T20:50:54.816Z</time>
      </trkpt>
      <trkpt lat="50.44104" lon="3.5672">
        <ele>19.427914</ele>
        <time>2020-05-27T20:51:08.229Z</time>
      </trkpt>
      <trkpt lat="50.44062" lon="3.56771">
        <ele>19.137758</ele>
        <time>2020-05-27T20:51:15.196Z</time>
      </trkpt>
      <trkpt lat="50.44049" lon="3.56796">
        <ele>19.049181</ele>
        <time>2020-05-27T20:51:17.898Z</time>
      </trkpt>
      <trkpt lat="50.4395" lon="3.56981">
        <ele>18.581638</ele>
        <time>2020-05-27T20:51:38.701Z</time>
      </trkpt>
      <trkpt lat="50.43912" lon="3.57055">
        <ele>18.760245</ele>
        <time>2020-05-27T20:51:48.078Z</time>
      </trkpt>
      <trkpt lat="50.43877" lon="3.57123">
        <ele>19.048849</ele>
        <time>2020-05-27T20:51:57.588Z</time>
      </trkpt>
      <trkpt lat="50.43871" lon="3.57134">
        <ele>19.094902</ele>
        <time>2020-05-27T20:51:59.215Z</time>
      </trkpt>
      <trkpt lat="50.43767" lon="3.57306">
        <ele>20.149888</ele>
        <time>2020-05-27T20:52:26.563Z</time>
      </trkpt>
      <trkpt lat="50.43732" lon="3.57364">
        <ele>20.583042</ele>
        <time>2020-05-27T20:52:35.895Z</time>
      </trkpt>
      <trkpt lat="50.43723" lon="3.57379">
        <ele>20.697178</ele>
        <time>2020-05-27T20:52:38.405Z</time>
      </trkpt>
      <trkpt lat="50.43698" lon="3.57422">
        <ele>21.02039</ele>
        <time>2020-05-27T20:52:45.356Z</time>
      </trkpt>
      <trkpt lat="50.43671" lon="3.57466">
        <ele>21.435141</ele>
        <time>2020-05-27T20:52:52.572Z</time>
      </trkpt>
      <trkpt lat="50.43661" lon="3.57483">
        <ele>21.593122</ele>
        <time>2020-05-27T20:52:55.373Z</time>
      </trkpt>
      <trkpt lat="50.43656" lon="3.57492">
        <ele>21.66991</ele>
        <time>2020-05-27T20:52:56.713Z</time>
      </trkpt>
      <trkpt lat="50.43617" lon="3.57559">
        <ele>22.28659</ele>
        <time>2020-05-27T20:53:07.780Z</time>
      </trkpt>
      <trkpt lat="50.43596" lon="3.57594">
        <ele>22.60458</ele>
        <time>2020-05-27T20:53:13.528Z</time>
      </trkpt>
      <trkpt lat="50.43573" lon="3.57634">
        <ele>22.968865</ele>
        <time>2020-05-27T20:53:20.246Z</time>
      </trkpt>
      <trkpt lat="50.43567" lon="3.57645">
        <ele>23.068935</ele>
        <time>2020-05-27T20:53:22.239Z</time>
      </trkpt>
      <trkpt lat="50.43558" lon="3.5766">
        <ele>23.197217</ele>
        <time>2020-05-27T20:53:24.872Z</time>
      </trkpt>
      <trkpt lat="50.43547" lon="3.57679">
        <ele>23.366129</ele>
        <time>2020-05-27T20:53:28.209Z</time>
      </trkpt>
      <trkpt lat="50.43521" lon="3.57723">
        <ele>23.756214</ele>
        <time>2020-05-27T20:53:35.869Z</time>
      </trkpt>
      <trkpt lat="50.43508" lon="3.57757">
        <ele>24.013418</ele>
        <time>2020-05-27T20:53:40.783Z</time>
      </trkpt>
      <trkpt lat="50.4348" lon="3.57837">
        <ele>24.604876</ele>
        <time>2020-05-27T20:53:51.595Z</time>
      </trkpt>
      <trkpt lat="50.4348" lon="3.57837">
        <ele>24.604876</ele>
        <time>2020-05-27T20:53:51.654Z</time>
      </trkpt>
      <trkpt lat="50.43457" lon="3.57796">
        <ele>24.615956</ele>
        <time>2020-05-27T20:53:59.178Z</time>
      </trkpt>
      <trkpt lat="50.43456" lon="3.57788">
        <ele>24.581194</ele>
        <time>2020-05-27T20:54:00.506Z</time>
      </trkpt>
      <trkpt lat="50.43433" lon="3.57746">
        <ele>24.358947</ele>
        <time>2020-05-27T20:54:07.623Z</time>
      </trkpt>
      <trkpt lat="50.43426" lon="3.57745">
        <ele>24.315654</ele>
        <time>2020-05-27T20:54:08.936Z</time>
      </trkpt>
      <trkpt lat="50.43417" lon="3.57726">
        <ele>24.225417</ele>
        <time>2020-05-27T20:54:11.674Z</time>
      </trkpt>
      <trkpt lat="50.43387" lon="3.57771">
        <ele>23.966735</ele>
        <time>2020-05-27T20:54:19.065Z</time>
      </trkpt>
      <trkpt lat="50.43387" lon="3.57771">
        <ele>23.966735</ele>
        <time>2020-05-27T20:54:19.068Z</time>
      </trkpt>
      <trkpt lat="50.43385" lon="3.5778">
        <ele>23.925323</ele>
        <time>2020-05-27T20:54:20.292Z</time>
      </trkpt>
      <trkpt lat="50.43356" lon="3.57826">
        <ele>23.671674</ele>
        <time>2020-05-27T20:54:26.920Z</time>
      </trkpt>
      <trkpt lat="50.4336" lon="3.57832">
        <ele>23.639715</ele>
        <time>2020-05-27T20:54:27.767Z</time>
      </trkpt>
      <trkpt lat="50.43324" lon="3.57875">
        <ele>22.697316</ele>
        <time>2020-05-27T20:54:34.952Z</time>
      </trkpt>
      <trkpt lat="50.43315" lon="3.5786">
        <ele>22.416752</ele>
        <time>2020-05-27T20:54:36.389Z</time>
      </trkpt>
      <trkpt lat="50.43293" lon="3.5788">
        <ele>21.872263</ele>
        <time>2020-05-27T20:54:39.042Z</time>
      </trkpt>
      <trkpt lat="50.43259" lon="3.57919">
        <ele>20.948692</ele>
        <time>2020-05-27T20:54:43.557Z</time>
      </trkpt>
      <trkpt lat="50.43254" lon="3.57919">
        <ele>20.839377</ele>
        <time>2020-05-27T20:54:44.100Z</time>
      </trkpt>
      <trkpt lat="50.4325" lon="3.57912">
        <ele>20.707809</ele>
        <time>2020-05-27T20:54:44.703Z</time>
      </trkpt>
      <trkpt lat="50.4322" lon="3.57892">
        <ele>19.98821</ele>
        <time>2020-05-27T20:54:48.233Z</time>
      </trkpt>
      <trkpt lat="50.43196" lon="3.57885">
        <ele>19.528197</ele>
        <time>2020-05-27T20:54:50.880Z</time>
      </trkpt>
      <trkpt lat="50.43179" lon="3.57888">
        <ele>19.267536</ele>
        <time>2020-05-27T20:54:52.704Z</time>
      </trkpt>
      <trkpt lat="50.43156" lon="3.57893">
        <ele>18.918165</ele>
        <time>2020-05-27T20:54:55.189Z</time>
      </trkpt>
      <trkpt lat="50.43143" lon="3.57895">
        <ele>18.715007</ele>
        <time>2020-05-27T20:54:56.612Z</time>
      </trkpt>
      <trkpt lat="50.43138" lon="3.57882">
        <ele>18.572233</ele>
        <time>2020-05-27T20:54:58.195Z</time>
      </trkpt>
      <trkpt lat="50.43117" lon="3.57893">
        <ele>18.239875</ele>
        <time>2020-05-27T20:55:00.578Z</time>
      </trkpt>
      <trkpt lat="50.4303" lon="3.57942">
        <ele>16.941211</ele>
        <time>2020-05-27T20:55:11.732Z</time>
      </trkpt>
      <trkpt lat="50.43029" lon="3.57942">
        <ele>16.940763</ele>
        <time>2020-05-27T20:55:11.903Z</time>
      </trkpt>
      <trkpt lat="50.42997" lon="3.57952">
        <ele>16.932899</ele>
        <time>2020-05-27T20:55:16.563Z</time>
      </trkpt>
      <trkpt lat="50.42914" lon="3.5797">
        <ele>16.912302</ele>
        <time>2020-05-27T20:55:28.854Z</time>
      </trkpt>
      <trkpt lat="50.42906" lon="3.57966">
        <ele>16.910277</ele>
        <time>2020-05-27T20:55:30.262Z</time>
      </trkpt>
      <trkpt lat="50.42898" lon="3.57966">
        <ele>16.908242</ele>
        <time>2020-05-27T20:55:31.785Z</time>
      </trkpt>
      <trkpt lat="50.42894" lon="3.57963">
        <ele>16.907267</ele>
        <time>2020-05-27T20:55:32.479Z</time>
      </trkpt>
      <trkpt lat="50.42891" lon="3.5796">
        <ele>16.906291</ele>
        <time>2020-05-27T20:55:33.150Z</time>
      </trkpt>
      <trkpt lat="50.42886" lon="3.5796">
        <ele>16.905083</ele>
        <time>2020-05-27T20:55:33.749Z</time>
      </trkpt>
      <trkpt lat="50.42881" lon="3.57961">
        <ele>16.903859</ele>
        <time>2020-05-27T20:55:34.515Z</time>
      </trkpt>
      <trkpt lat="50.42876" lon="3.57965">
        <ele>16.902627</ele>
        <time>2020-05-27T20:55:35.357Z</time>
      </trkpt>
      <trkpt lat="50.42874" lon="3.57968">
        <ele>16.901949</ele>
        <time>2020-05-27T20:55:35.851Z</time>
      </trkpt>
      <trkpt lat="50.42873" lon="3.57971">
        <ele>16.901273</ele>
        <time>2020-05-27T20:55:36.351Z</time>
      </trkpt>
      <trkpt lat="50.4286" lon="3.57983">
        <ele>16.932152</ele>
        <time>2020-05-27T20:55:39.725Z</time>
      </trkpt>
      <trkpt lat="50.42731" lon="3.58004">
        <ele>17.766482</ele>
        <time>2020-05-27T20:56:09.435Z</time>
      </trkpt>
      <trkpt lat="50.42722" lon="3.5801">
        <ele>17.829313</ele>
        <time>2020-05-27T20:56:12.019Z</time>
      </trkpt>
      <trkpt lat="50.42716" lon="3.58012">
        <ele>17.869826</ele>
        <time>2020-05-27T20:56:13.555Z</time>
      </trkpt>
      <trkpt lat="50.42701" lon="3.58018">
        <ele>17.969345</ele>
        <time>2020-05-27T20:56:17.129Z</time>
      </trkpt>
      <trkpt lat="50.42683" lon="3.58031">
        <ele>18.069601</ele>
        <time>2020-05-27T20:56:21.783Z</time>
      </trkpt>
      <trkpt lat="50.42637" lon="3.58061">
        <ele>18.159995</ele>
        <time>2020-05-27T20:56:32.523Z</time>
      </trkpt>
      <trkpt lat="50.42574" lon="3.58103">
        <ele>18.285167</ele>
        <time>2020-05-27T20:56:46.555Z</time>
      </trkpt>
      <trkpt lat="50.4256" lon="3.58112">
        <ele>18.31338</ele>
        <time>2020-05-27T20:56:48.898Z</time>
      </trkpt>
      <trkpt lat="50.4248" lon="3.58165">
        <ele>18.128836</ele>
        <time>2020-05-27T20:57:01.348Z</time>
      </trkpt>
      <trkpt lat="50.42363" lon="3.58241">
        <ele>17.426508</ele>
        <time>2020-05-27T20:57:17.331Z</time>
      </trkpt>
      <trkpt lat="50.42328" lon="3.5827">
        <ele>17.254358</ele>
        <time>2020-05-27T20:57:22.368Z</time>
      </trkpt>
      <trkpt lat="50.42195" lon="3.58398">
        <ele>16.667037</ele>
        <time>2020-05-27T20:57:43.855Z</time>
      </trkpt>
      <trkpt lat="50.41997" lon="3.5859">
        <ele>16.917841</ele>
        <time>2020-05-27T20:58:20.550Z</time>
      </trkpt>
      <trkpt lat="50.41968" lon="3.58616">
        <ele>16.90896</ele>
        <time>2020-05-27T20:58:25.642Z</time>
      </trkpt>
      <trkpt lat="50.41941" lon="3.58645">
        <ele>16.900139</ele>
        <time>2020-05-27T20:58:30.565Z</time>
      </trkpt>
      <trkpt lat="50.41868" lon="3.58715">
        <ele>16.68744</ele>
        <time>2020-05-27T20:58:42.040Z</time>
      </trkpt>
      <trkpt lat="50.41825" lon="3.58767">
        <ele>16.368516</ele>
        <time>2020-05-27T20:58:49.092Z</time>
      </trkpt>
      <trkpt lat="50.41816" lon="3.58783">
        <ele>16.288326</ele>
        <time>2020-05-27T20:58:50.794Z</time>
      </trkpt>
      <trkpt lat="50.41803" lon="3.58808">
        <ele>16.165036</ele>
        <time>2020-05-27T20:58:53.476Z</time>
      </trkpt>
      <trkpt lat="50.41794" lon="3.58822">
        <ele>16.090232</ele>
        <time>2020-05-27T20:58:55.086Z</time>
      </trkpt>
      <trkpt lat="50.41788" lon="3.58839">
        <ele>16.019409</ele>
        <time>2020-05-27T20:58:56.558Z</time>
      </trkpt>
      <trkpt lat="50.41756" lon="3.58919">
        <ele>15.74446</ele>
        <time>2020-05-27T20:59:04.448Z</time>
      </trkpt>
      <trkpt lat="50.41715" lon="3.58988">
        <ele>15.567326</ele>
        <time>2020-05-27T20:59:12.691Z</time>
      </trkpt>
      <trkpt lat="50.41667" lon="3.59096">
        <ele>15.3201</ele>
        <time>2020-05-27T20:59:24.365Z</time>
      </trkpt>
      <trkpt lat="50.41659" lon="3.59102">
        <ele>15.299981</ele>
        <time>2020-05-27T20:59:25.800Z</time>
      </trkpt>
      <trkpt lat="50.4165" lon="3.5911">
        <ele>15.338866</ele>
        <time>2020-05-27T20:59:27.289Z</time>
      </trkpt>
      <trkpt lat="50.41643" lon="3.59109">
        <ele>15.364861</ele>
        <time>2020-05-27T20:59:28.392Z</time>
      </trkpt>
      <trkpt lat="50.41637" lon="3.59112">
        <ele>15.39077</ele>
        <time>2020-05-27T20:59:29.396Z</time>
      </trkpt>
      <trkpt lat="50.41631" lon="3.59117">
        <ele>15.416674</ele>
        <time>2020-05-27T20:59:30.520Z</time>
      </trkpt>
      <trkpt lat="50.41627" lon="3.59125">
        <ele>15.442492</ele>
        <time>2020-05-27T20:59:31.520Z</time>
      </trkpt>
      <trkpt lat="50.41624" lon="3.59135">
        <ele>15.468224</ele>
        <time>2020-05-27T20:59:32.574Z</time>
      </trkpt>
      <trkpt lat="50.41623" lon="3.59145">
        <ele>15.494021</ele>
        <time>2020-05-27T20:59:33.662Z</time>
      </trkpt>
      <trkpt lat="50.41624" lon="3.59154">
        <ele>15.517429</ele>
        <time>2020-05-27T20:59:34.643Z</time>
      </trkpt>
      <trkpt lat="50.41627" lon="3.59163">
        <ele>15.540814</ele>
        <time>2020-05-27T20:59:35.627Z</time>
      </trkpt>
      <trkpt lat="50.41625" lon="3.59178">
        <ele>15.579506</ele>
        <time>2020-05-27T20:59:37.262Z</time>
      </trkpt>
      <trkpt lat="50.41622" lon="3.59193">
        <ele>15.619478</ele>
        <time>2020-05-27T20:59:38.937Z</time>
      </trkpt>
      <trkpt lat="50.41592" lon="3.59258">
        <ele>15.817438</ele>
        <time>2020-05-27T20:59:47.658Z</time>
      </trkpt>
      <trkpt lat="50.41569" lon="3.59321">
        <ele>15.994215</ele>
        <time>2020-05-27T20:59:55.599Z</time>
      </trkpt>
      <trkpt lat="50.41523" lon="3.59537">
        <ele>16.822808</ele>
        <time>2020-05-27T21:00:20.847Z</time>
      </trkpt>
      <trkpt lat="50.41513" lon="3.5958">
        <ele>16.986326</ele>
        <time>2020-05-27T21:00:25.682Z</time>
      </trkpt>
      <trkpt lat="50.4149" lon="3.59683">
        <ele>17.304099</ele>
        <time>2020-05-27T21:00:37.169Z</time>
      </trkpt>
      <trkpt lat="50.41448" lon="3.59822">
        <ele>17.745722</ele>
        <time>2020-05-27T21:00:53.421Z</time>
      </trkpt>
      <trkpt lat="50.41419" lon="3.59866">
        <ele>17.935157</ele>
        <time>2020-05-27T21:01:00.309Z</time>
      </trkpt>
      <trkpt lat="50.41382" lon="3.59894">
        <ele>18.127048</ele>
        <time>2020-05-27T21:01:07.093Z</time>
      </trkpt>
      <trkpt lat="50.41365" lon="3.5991">
        <ele>18.224091</ele>
        <time>2020-05-27T21:01:10.583Z</time>
      </trkpt>
      <trkpt lat="50.413" lon="3.59965">
        <ele>18.57467</ele>
        <time>2020-05-27T21:01:22.797Z</time>
      </trkpt>
      <trkpt lat="50.41289" lon="3.59973">
        <ele>18.632137</ele>
        <time>2020-05-27T21:01:24.724Z</time>
      </trkpt>
      <trkpt lat="50.41282" lon="3.59977">
        <ele>18.667909</ele>
        <time>2020-05-27T21:01:26.077Z</time>
      </trkpt>
      <trkpt lat="50.41275" lon="3.59976">
        <ele>18.697379</ele>
        <time>2020-05-27T21:01:27.308Z</time>
      </trkpt>
      <trkpt lat="50.4127" lon="3.59974">
        <ele>18.714828</ele>
        <time>2020-05-27T21:01:28.167Z</time>
      </trkpt>
      <trkpt lat="50.41267" lon="3.5997">
        <ele>18.727437</ele>
        <time>2020-05-27T21:01:28.723Z</time>
      </trkpt>
      <trkpt lat="50.41254" lon="3.59981">
        <ele>18.778269</ele>
        <time>2020-05-27T21:01:31.308Z</time>
      </trkpt>
      <trkpt lat="50.41164" lon="3.60059">
        <ele>19.126509</ele>
        <time>2020-05-27T21:01:47.760Z</time>
      </trkpt>
      <trkpt lat="50.41143" lon="3.60087">
        <ele>19.219291</ele>
        <time>2020-05-27T21:01:51.937Z</time>
      </trkpt>
      <trkpt lat="50.41138" lon="3.60093">
        <ele>19.24209</ele>
        <time>2020-05-27T21:01:53.058Z</time>
      </trkpt>
      <trkpt lat="50.4113" lon="3.60097">
        <ele>19.269269</ele>
        <time>2020-05-27T21:01:54.331Z</time>
      </trkpt>
      <trkpt lat="50.4104" lon="3.60135">
        <ele>19.600657</ele>
        <time>2020-05-27T21:02:09.478Z</time>
      </trkpt>
      <trkpt lat="50.41003" lon="3.6016">
        <ele>19.743026</ele>
        <time>2020-05-27T21:02:16.227Z</time>
      </trkpt>
      <trkpt lat="50.40956" lon="3.60188">
        <ele>19.920803</ele>
        <time>2020-05-27T21:02:24.389Z</time>
      </trkpt>
      <trkpt lat="50.40949" lon="3.60192">
        <ele>19.939688</ele>
        <time>2020-05-27T21:02:25.781Z</time>
      </trkpt>
      <trkpt lat="50.40902" lon="3.60212">
        <ele>20.020363</ele>
        <time>2020-05-27T21:02:33.189Z</time>
      </trkpt>
      <trkpt lat="50.40889" lon="3.60212">
        <ele>20.042344</ele>
        <time>2020-05-27T21:02:35.323Z</time>
      </trkpt>
      <trkpt lat="50.40876" lon="3.60209">
        <ele>20.06551</ele>
        <time>2020-05-27T21:02:37.463Z</time>
      </trkpt>
      <trkpt lat="50.40849" lon="3.60207">
        <ele>20.111542</ele>
        <time>2020-05-27T21:02:41.664Z</time>
      </trkpt>
      <trkpt lat="50.4078" lon="3.6024">
        <ele>20.23306</ele>
        <time>2020-05-27T21:02:52.730Z</time>
      </trkpt>
      <trkpt lat="50.40723" lon="3.60294">
        <ele>20.169014</ele>
        <time>2020-05-27T21:03:02.190Z</time>
      </trkpt>
      <trkpt lat="50.40714" lon="3.60321">
        <ele>20.148777</ele>
        <time>2020-05-27T21:03:05.071Z</time>
      </trkpt>
      <trkpt lat="50.40714" lon="3.6034">
        <ele>20.13704</ele>
        <time>2020-05-27T21:03:06.711Z</time>
      </trkpt>
      <trkpt lat="50.40692" lon="3.60339">
        <ele>20.114476</ele>
        <time>2020-05-27T21:03:09.922Z</time>
      </trkpt>
      <trkpt lat="50.40682" lon="3.60337">
        <ele>20.10435</ele>
        <time>2020-05-27T21:03:11.356Z</time>
      </trkpt>
      <trkpt lat="50.40681" lon="3.60348">
        <ele>20.09736</ele>
        <time>2020-05-27T21:03:12.321Z</time>
      </trkpt>
      <trkpt lat="50.40676" lon="3.60366">
        <ele>20.084303</ele>
        <time>2020-05-27T21:03:14.199Z</time>
      </trkpt>
      <trkpt lat="50.40624" lon="3.60463">
        <ele>19.977991</ele>
        <time>2020-05-27T21:03:25.853Z</time>
      </trkpt>
      <trkpt lat="50.4062" lon="3.60477">
        <ele>19.963401</ele>
        <time>2020-05-27T21:03:27.227Z</time>
      </trkpt>
      <trkpt lat="50.40581" lon="3.6059">
        <ele>19.839094</ele>
        <time>2020-05-27T21:03:38.976Z</time>
      </trkpt>
      <trkpt lat="50.40572" lon="3.6061">
        <ele>19.815626</ele>
        <time>2020-05-27T21:03:41.196Z</time>
      </trkpt>
      <trkpt lat="50.40565" lon="3.60604">
        <ele>19.803142</ele>
        <time>2020-05-27T21:03:42.329Z</time>
      </trkpt>
      <trkpt lat="50.40558" lon="3.60603">
        <ele>19.791726</ele>
        <time>2020-05-27T21:03:43.367Z</time>
      </trkpt>
      <trkpt lat="50.40552" lon="3.60606">
        <ele>19.783573</ele>
        <time>2020-05-27T21:03:44.096Z</time>
      </trkpt>
      <trkpt lat="50.40546" lon="3.60613">
        <ele>19.776495</ele>
        <time>2020-05-27T21:03:45.152Z</time>
      </trkpt>
      <trkpt lat="50.40543" lon="3.60621">
        <ele>19.772644</ele>
        <time>2020-05-27T21:03:46.059Z</time>
      </trkpt>
      <trkpt lat="50.40542" lon="3.60632">
        <ele>19.768441</ele>
        <time>2020-05-27T21:03:47.000Z</time>
      </trkpt>
      <trkpt lat="50.40543" lon="3.60642">
        <ele>19.764313</ele>
        <time>2020-05-27T21:03:47.925Z</time>
      </trkpt>
      <trkpt lat="50.40548" lon="3.60653">
        <ele>19.759123</ele>
        <time>2020-05-27T21:03:49.085Z</time>
      </trkpt>
      <trkpt lat="50.40548" lon="3.60682">
        <ele>19.748133</ele>
        <time>2020-05-27T21:03:51.626Z</time>
      </trkpt>
      <trkpt lat="50.4052" lon="3.60756">
        <ele>19.714867</ele>
        <time>2020-05-27T21:03:59.517Z</time>
      </trkpt>
      <trkpt lat="50.40467" lon="3.60862">
        <ele>19.732661</ele>
        <time>2020-05-27T21:04:12.540Z</time>
      </trkpt>
      <trkpt lat="50.40433" lon="3.60923">
        <ele>19.988228</ele>
        <time>2020-05-27T21:04:20.677Z</time>
      </trkpt>
      <trkpt lat="50.40302" lon="3.6112">
        <ele>20.939506</ele>
        <time>2020-05-27T21:04:52.421Z</time>
      </trkpt>
      <trkpt lat="50.4025" lon="3.6118">
        <ele>21.305845</ele>
        <time>2020-05-27T21:05:03.552Z</time>
      </trkpt>
      <trkpt lat="50.4023" lon="3.61194">
        <ele>21.432738</ele>
        <time>2020-05-27T21:05:07.334Z</time>
      </trkpt>
      <trkpt lat="50.40216" lon="3.612">
        <ele>21.512773</ele>
        <time>2020-05-27T21:05:09.681Z</time>
      </trkpt>
      <trkpt lat="50.40184" lon="3.61197">
        <ele>21.652891</ele>
        <time>2020-05-27T21:05:15.146Z</time>
      </trkpt>
      <trkpt lat="50.40075" lon="3.61158">
        <ele>22.008867</ele>
        <time>2020-05-27T21:05:33.108Z</time>
      </trkpt>
      <trkpt lat="50.39948" lon="3.61156">
        <ele>22.449721</ele>
        <time>2020-05-27T21:05:52.870Z</time>
      </trkpt>
      <trkpt lat="50.39927" lon="3.61164">
        <ele>22.530163</ele>
        <time>2020-05-27T21:05:56.402Z</time>
      </trkpt>
      <trkpt lat="50.39812" lon="3.61237">
        <ele>23.15608</ele>
        <time>2020-05-27T21:06:17.592Z</time>
      </trkpt>
      <trkpt lat="50.39772" lon="3.61269">
        <ele>23.505452</ele>
        <time>2020-05-27T21:06:25.750Z</time>
      </trkpt>
      <trkpt lat="50.39755" lon="3.6129">
        <ele>23.666728</ele>
        <time>2020-05-27T21:06:29.643Z</time>
      </trkpt>
      <trkpt lat="50.39746" lon="3.61305">
        <ele>23.768789</ele>
        <time>2020-05-27T21:06:31.971Z</time>
      </trkpt>
      <trkpt lat="50.39713" lon="3.61373">
        <ele>24.189726</ele>
        <time>2020-05-27T21:06:42.070Z</time>
      </trkpt>
      <trkpt lat="50.39617" lon="3.61562">
        <ele>25.472926</ele>
        <time>2020-05-27T21:07:10.084Z</time>
      </trkpt>
      <trkpt lat="50.39588" lon="3.61612">
        <ele>25.823759</ele>
        <time>2020-05-27T21:07:17.788Z</time>
      </trkpt>
      <trkpt lat="50.39583" lon="3.6162">
        <ele>25.881258</ele>
        <time>2020-05-27T21:07:19.117Z</time>
      </trkpt>
      <trkpt lat="50.39547" lon="3.6168">
        <ele>26.285704</ele>
        <time>2020-05-27T21:07:28.479Z</time>
      </trkpt>
      <trkpt lat="50.39539" lon="3.61694">
        <ele>26.380769</ele>
        <time>2020-05-27T21:07:30.898Z</time>
      </trkpt>
      <trkpt lat="50.39525" lon="3.61718">
        <ele>26.540347</ele>
        <time>2020-05-27T21:07:34.529Z</time>
      </trkpt>
      <trkpt lat="50.39499" lon="3.61784">
        <ele>26.922548</ele>
        <time>2020-05-27T21:07:43.529Z</time>
      </trkpt>
      <trkpt lat="50.3949" lon="3.61806">
        <ele>27.050936</ele>
        <time>2020-05-27T21:07:46.416Z</time>
      </trkpt>
      <trkpt lat="50.39483" lon="3.61822">
        <ele>27.134663</ele>
        <time>2020-05-27T21:07:48.576Z</time>
      </trkpt>
      <trkpt lat="50.39472" lon="3.61837">
        <ele>27.210547</ele>
        <time>2020-05-27T21:07:51.110Z</time>
      </trkpt>
      <trkpt lat="50.39459" lon="3.61853">
        <ele>27.304913</ele>
        <time>2020-05-27T21:07:53.960Z</time>
      </trkpt>
      <trkpt lat="50.39444" lon="3.61864">
        <ele>27.393942</ele>
        <time>2020-05-27T21:07:56.956Z</time>
      </trkpt>
      <trkpt lat="50.39432" lon="3.61874">
        <ele>27.468351</ele>
        <time>2020-05-27T21:07:59.214Z</time>
      </trkpt>
      <trkpt lat="50.39405" lon="3.6189">
        <ele>27.62499</ele>
        <time>2020-05-27T21:08:04.088Z</time>
      </trkpt>
      <trkpt lat="50.39254" lon="3.61935">
        <ele>28.392428</ele>
        <time>2020-05-27T21:08:29.595Z</time>
      </trkpt>
      <trkpt lat="50.39229" lon="3.6195">
        <ele>28.511983</ele>
        <time>2020-05-27T21:08:33.882Z</time>
      </trkpt>
      <trkpt lat="50.39224" lon="3.61953">
        <ele>28.538352</ele>
        <time>2020-05-27T21:08:35.044Z</time>
      </trkpt>
      <trkpt lat="50.39167" lon="3.62007">
        <ele>28.836389</ele>
        <time>2020-05-27T21:08:45.952Z</time>
      </trkpt>
      <trkpt lat="50.39158" lon="3.62015">
        <ele>28.882572</ele>
        <time>2020-05-27T21:08:47.904Z</time>
      </trkpt>
      <trkpt lat="50.39152" lon="3.62018">
        <ele>28.92278</ele>
        <time>2020-05-27T21:08:48.873Z</time>
      </trkpt>
      <trkpt lat="50.3915" lon="3.6202">
        <ele>28.941554</ele>
        <time>2020-05-27T21:08:49.373Z</time>
      </trkpt>
      <trkpt lat="50.39134" lon="3.62028">
        <ele>29.06452</ele>
        <time>2020-05-27T21:08:51.839Z</time>
      </trkpt>
      <trkpt lat="50.39118" lon="3.62035">
        <ele>29.192338</ele>
        <time>2020-05-27T21:08:54.983Z</time>
      </trkpt>
      <trkpt lat="50.39061" lon="3.62043">
        <ele>29.615538</ele>
        <time>2020-05-27T21:09:05.261Z</time>
      </trkpt>
      <trkpt lat="50.39011" lon="3.62056">
        <ele>29.989993</ele>
        <time>2020-05-27T21:09:14.754Z</time>
      </trkpt>
      <trkpt lat="50.38966" lon="3.6208">
        <ele>30.340763</ele>
        <time>2020-05-27T21:09:23.035Z</time>
      </trkpt>
      <trkpt lat="50.38962" lon="3.62081">
        <ele>30.37288</ele>
        <time>2020-05-27T21:09:23.976Z</time>
      </trkpt>
      <trkpt lat="50.38951" lon="3.62085">
        <ele>30.456761</ele>
        <time>2020-05-27T21:09:26.031Z</time>
      </trkpt>
      <trkpt lat="50.38934" lon="3.62097">
        <ele>30.590814</ele>
        <time>2020-05-27T21:09:28.906Z</time>
      </trkpt>
      <trkpt lat="50.38932" lon="3.62098">
        <ele>30.611021</ele>
        <time>2020-05-27T21:09:29.438Z</time>
      </trkpt>
      <trkpt lat="50.38922" lon="3.62102">
        <ele>30.683312</ele>
        <time>2020-05-27T21:09:31.386Z</time>
      </trkpt>
      <trkpt lat="50.38886" lon="3.62119">
        <ele>30.962953</ele>
        <time>2020-05-27T21:09:38.091Z</time>
      </trkpt>
      <trkpt lat="50.38874" lon="3.6212">
        <ele>31.053322</ele>
        <time>2020-05-27T21:09:40.254Z</time>
      </trkpt>
      <trkpt lat="50.38858" lon="3.62114">
        <ele>31.179193</ele>
        <time>2020-05-27T21:09:43.241Z</time>
      </trkpt>
      <trkpt lat="50.38794" lon="3.62108">
        <ele>31.619607</ele>
        <time>2020-05-27T21:09:54.615Z</time>
      </trkpt>
      <trkpt lat="50.38698" lon="3.62126">
        <ele>32.060668</ele>
        <time>2020-05-27T21:10:10.774Z</time>
      </trkpt>
      <trkpt lat="50.3866" lon="3.62148">
        <ele>32.244135</ele>
        <time>2020-05-27T21:10:17.176Z</time>
      </trkpt>
      <trkpt lat="50.38646" lon="3.62156">
        <ele>32.31243</ele>
        <time>2020-05-27T21:10:19.656Z</time>
      </trkpt>
      <trkpt lat="50.38626" lon="3.6217">
        <ele>32.413795</ele>
        <time>2020-05-27T21:10:23.211Z</time>
      </trkpt>
      <trkpt lat="50.3856" lon="3.62192">
        <ele>32.706156</ele>
        <time>2020-05-27T21:10:34.189Z</time>
      </trkpt>
      <trkpt lat="50.38459" lon="3.62214">
        <ele>33.148639</ele>
        <time>2020-05-27T21:10:51.231Z</time>
      </trkpt>
      <trkpt lat="50.38414" lon="3.62224">
        <ele>33.539166</ele>
        <time>2020-05-27T21:10:59.107Z</time>
      </trkpt>
      <trkpt lat="50.38349" lon="3.62241">
        <ele>34.118957</ele>
        <time>2020-05-27T21:11:10.748Z</time>
      </trkpt>
      <trkpt lat="50.38302" lon="3.62264">
        <ele>34.559763</ele>
        <time>2020-05-27T21:11:20.088Z</time>
      </trkpt>
      <trkpt lat="50.38259" lon="3.62286">
        <ele>35.0858</ele>
        <time>2020-05-27T21:11:29.222Z</time>
      </trkpt>
      <trkpt lat="50.38198" lon="3.62333">
        <ele>36.053004</ele>
        <time>2020-05-27T21:11:43.418Z</time>
      </trkpt>
      <trkpt lat="50.38171" lon="3.62359">
        <ele>36.50577</ele>
        <time>2020-05-27T21:11:50.085Z</time>
      </trkpt>
      <trkpt lat="50.38146" lon="3.62387">
        <ele>36.941582</ele>
        <time>2020-05-27T21:11:56.443Z</time>
      </trkpt>
      <trkpt lat="50.38129" lon="3.62408">
        <ele>37.258468</ele>
        <time>2020-05-27T21:12:01.122Z</time>
      </trkpt>
      <trkpt lat="50.38047" lon="3.62531">
        <ele>38.443417</ele>
        <time>2020-05-27T21:12:24.083Z</time>
      </trkpt>
      <trkpt lat="50.37917" lon="3.62741">
        <ele>39.346737</ele>
        <time>2020-05-27T21:12:55.632Z</time>
      </trkpt>
      <trkpt lat="50.3791" lon="3.62755">
        <ele>39.363853</ele>
        <time>2020-05-27T21:12:57.259Z</time>
      </trkpt>
      <trkpt lat="50.37901" lon="3.62742">
        <ele>39.381387</ele>
        <time>2020-05-27T21:12:58.806Z</time>
      </trkpt>
      <trkpt lat="50.37889" lon="3.62724">
        <ele>39.405923</ele>
        <time>2020-05-27T21:13:01.044Z</time>
      </trkpt>
      <trkpt lat="50.37884" lon="3.62712">
        <ele>39.420256</ele>
        <time>2020-05-27T21:13:02.314Z</time>
      </trkpt>
      <trkpt lat="50.37876" lon="3.62675">
        <ele>39.35752</ele>
        <time>2020-05-27T21:13:05.592Z</time>
      </trkpt>
      <trkpt lat="50.37871" lon="3.62616">
        <ele>39.014187</ele>
        <time>2020-05-27T21:13:10.418Z</time>
      </trkpt>
      <trkpt lat="50.3787" lon="3.62514">
        <ele>38.422275</ele>
        <time>2020-05-27T21:13:18.383Z</time>
      </trkpt>
      <trkpt lat="50.37869" lon="3.62224">
        <ele>36.736677</ele>
        <time>2020-05-27T21:13:41.005Z</time>
      </trkpt>
      <trkpt lat="50.37874" lon="3.62125">
        <ele>36.168831</ele>
        <time>2020-05-27T21:13:48.918Z</time>
      </trkpt>
      <trkpt lat="50.37883" lon="3.62051">
        <ele>36.107863</ele>
        <time>2020-05-27T21:13:55.247Z</time>
      </trkpt>
      <trkpt lat="50.3789" lon="3.61958">
        <ele>36.031915</ele>
        <time>2020-05-27T21:14:03.797Z</time>
      </trkpt>
      <trkpt lat="50.37895" lon="3.61874">
        <ele>35.964041</ele>
        <time>2020-05-27T21:14:12.304Z</time>
      </trkpt>
      <trkpt lat="50.37901" lon="3.61811">
        <ele>36.090588</ele>
        <time>2020-05-27T21:14:19.110Z</time>
      </trkpt>
      <trkpt lat="50.37908" lon="3.61753">
        <ele>36.331032</ele>
        <time>2020-05-27T21:14:25.343Z</time>
      </trkpt>
      <trkpt lat="50.3793" lon="3.61621">
        <ele>36.887345</ele>
        <time>2020-05-27T21:14:40.792Z</time>
      </trkpt>
      <trkpt lat="50.37942" lon="3.6157">
        <ele>37.110741</ele>
        <time>2020-05-27T21:14:47.159Z</time>
      </trkpt>
      <trkpt lat="50.37947" lon="3.61549">
        <ele>37.212035</ele>
        <time>2020-05-27T21:14:49.831Z</time>
      </trkpt>
      <trkpt lat="50.37955" lon="3.61535">
        <ele>37.298637</ele>
        <time>2020-05-27T21:14:51.863Z</time>
      </trkpt>
      <trkpt lat="50.37965" lon="3.61528">
        <ele>37.374781</ele>
        <time>2020-05-27T21:14:53.739Z</time>
      </trkpt>
      <trkpt lat="50.3797" lon="3.61519">
        <ele>37.429357</ele>
        <time>2020-05-27T21:14:55.158Z</time>
      </trkpt>
      <trkpt lat="50.37972" lon="3.61508">
        <ele>37.483405</ele>
        <time>2020-05-27T21:14:56.576Z</time>
      </trkpt>
      <trkpt lat="50.37972" lon="3.61496">
        <ele>37.537587</ele>
        <time>2020-05-27T21:14:57.820Z</time>
      </trkpt>
      <trkpt lat="50.3797" lon="3.61485">
        <ele>37.588549</ele>
        <time>2020-05-27T21:14:59.033Z</time>
      </trkpt>
      <trkpt lat="50.37966" lon="3.61476">
        <ele>37.640182</ele>
        <time>2020-05-27T21:15:00.270Z</time>
      </trkpt>
      <trkpt lat="50.37964" lon="3.61454">
        <ele>37.740848</ele>
        <time>2020-05-27T21:15:02.860Z</time>
      </trkpt>
      <trkpt lat="50.38023" lon="3.61157">
        <ele>38.781758</ele>
        <time>2020-05-27T21:15:37.467Z</time>
      </trkpt>
      <trkpt lat="50.38029" lon="3.61114">
        <ele>38.882344</ele>
        <time>2020-05-27T21:15:41.718Z</time>
      </trkpt>
      <trkpt lat="50.38032" lon="3.61086">
        <ele>38.948802</ele>
        <time>2020-05-27T21:15:44.390Z</time>
      </trkpt>
      <trkpt lat="50.38035" lon="3.61078">
        <ele>38.96947</ele>
        <time>2020-05-27T21:15:45.282Z</time>
      </trkpt>
      <trkpt lat="50.38042" lon="3.6107">
        <ele>39.000431</ele>
        <time>2020-05-27T21:15:46.553Z</time>
      </trkpt>
      <trkpt lat="50.38048" lon="3.61064">
        <ele>39.027468</ele>
        <time>2020-05-27T21:15:47.554Z</time>
      </trkpt>
      <trkpt lat="50.38055" lon="3.61043">
        <ele>38.928129</ele>
        <time>2020-05-27T21:15:49.757Z</time>
      </trkpt>
      <trkpt lat="50.38054" lon="3.61031">
        <ele>38.857352</ele>
        <time>2020-05-27T21:15:50.997Z</time>
      </trkpt>
      <trkpt lat="50.3805" lon="3.61021">
        <ele>38.786716</ele>
        <time>2020-05-27T21:15:52.011Z</time>
      </trkpt>
      <trkpt lat="50.38044" lon="3.60996">
        <ele>38.630216</ele>
        <time>2020-05-27T21:15:54.331Z</time>
      </trkpt>
      <trkpt lat="50.38046" lon="3.60974">
        <ele>38.50021</ele>
        <time>2020-05-27T21:15:56.451Z</time>
      </trkpt>
      <trkpt lat="50.38056" lon="3.60888">
        <ele>37.984383</ele>
        <time>2020-05-27T21:16:03.369Z</time>
      </trkpt>
      <trkpt lat="50.38063" lon="3.60825">
        <ele>37.605554</ele>
        <time>2020-05-27T21:16:08.067Z</time>
      </trkpt>
      <trkpt lat="50.38066" lon="3.60812">
        <ele>37.524142</ele>
        <time>2020-05-27T21:16:09.091Z</time>
      </trkpt>
      <trkpt lat="50.38077" lon="3.60807">
        <ele>37.422841</ele>
        <time>2020-05-27T21:16:10.300Z</time>
      </trkpt>
      <trkpt lat="50.38084" lon="3.60794">
        <ele>37.278045</ele>
        <time>2020-05-27T21:16:11.562Z</time>
      </trkpt>
      <trkpt lat="50.38084" lon="3.60764">
        <ele>36.949751</ele>
        <time>2020-05-27T21:16:13.769Z</time>
      </trkpt>
      <trkpt lat="50.38078" lon="3.60753">
        <ele>36.795463</ele>
        <time>2020-05-27T21:16:14.788Z</time>
      </trkpt>
      <trkpt lat="50.38074" lon="3.60727">
        <ele>36.514919</ele>
        <time>2020-05-27T21:16:16.657Z</time>
      </trkpt>
      <trkpt lat="50.38075" lon="3.60691">
        <ele>36.128633</ele>
        <time>2020-05-27T21:16:19.256Z</time>
      </trkpt>
      <trkpt lat="50.38082" lon="3.60655">
        <ele>35.731502</ele>
        <time>2020-05-27T21:16:21.945Z</time>
      </trkpt>
      <trkpt lat="50.38096" lon="3.60614">
        <ele>35.226687</ele>
        <time>2020-05-27T21:16:25.412Z</time>
      </trkpt>
      <trkpt lat="50.38117" lon="3.60575">
        <ele>34.688297</ele>
        <time>2020-05-27T21:16:29.047Z</time>
      </trkpt>
      <trkpt lat="50.38142" lon="3.60541">
        <ele>34.207876</ele>
        <time>2020-05-27T21:16:32.858Z</time>
      </trkpt>
      <trkpt lat="50.38166" lon="3.60522">
        <ele>33.91185</ele>
        <time>2020-05-27T21:16:35.971Z</time>
      </trkpt>
      <trkpt lat="50.38215" lon="3.60494">
        <ele>33.34101</ele>
        <time>2020-05-27T21:16:42.094Z</time>
      </trkpt>
      <trkpt lat="50.38265" lon="3.60461">
        <ele>32.744479</ele>
        <time>2020-05-27T21:16:48.756Z</time>
      </trkpt>
      <trkpt lat="50.38315" lon="3.6041">
        <ele>32.301596</ele>
        <time>2020-05-27T21:16:56.587Z</time>
      </trkpt>
      <trkpt lat="50.38374" lon="3.60341">
        <ele>32.071895</ele>
        <time>2020-05-27T21:17:06.706Z</time>
      </trkpt>
      <trkpt lat="50.38374" lon="3.60341">
        <ele>32.071895</ele>
        <time>2020-05-27T21:17:06.755Z</time>
      </trkpt>
      <trkpt lat="50.38385" lon="3.60328">
        <ele>32.029586</ele>
        <time>2020-05-27T21:17:08.687Z</time>
      </trkpt>
      <trkpt lat="50.38547" lon="3.60203">
        <ele>31.460766</ele>
        <time>2020-05-27T21:17:34.550Z</time>
      </trkpt>
      <trkpt lat="50.38555" lon="3.60197">
        <ele>31.434503</ele>
        <time>2020-05-27T21:17:35.692Z</time>
      </trkpt>
      <trkpt lat="50.3857" lon="3.60242">
        <ele>31.332572</ele>
        <time>2020-05-27T21:17:39.925Z</time>
      </trkpt>
      <trkpt lat="50.38574" lon="3.60248">
        <ele>31.313767</ele>
        <time>2020-05-27T21:17:40.749Z</time>
      </trkpt>
      <trkpt lat="50.38577" lon="3.60251">
        <ele>31.30301</ele>
        <time>2020-05-27T21:17:41.122Z</time>
      </trkpt>
      <trkpt lat="50.38644" lon="3.60227">
        <ele>30.819354</ele>
        <time>2020-05-27T21:17:49.918Z</time>
      </trkpt>
      <trkpt lat="50.38708" lon="3.602">
        <ele>30.284001</ele>
        <time>2020-05-27T21:17:58.145Z</time>
      </trkpt>
      <trkpt lat="50.38725" lon="3.60161">
        <ele>30.037478</ele>
        <time>2020-05-27T21:18:01.860Z</time>
      </trkpt>
      <trkpt lat="50.38738" lon="3.60179">
        <ele>29.902582</ele>
        <time>2020-05-27T21:18:03.935Z</time>
      </trkpt>
      <trkpt lat="50.38758" lon="3.60239">
        <ele>29.667071</ele>
        <time>2020-05-27T21:18:09.427Z</time>
      </trkpt>
      <trkpt lat="50.38762" lon="3.6029">
        <ele>29.527187</ele>
        <time>2020-05-27T21:18:13.633Z</time>
      </trkpt>
      <trkpt lat="50.38802" lon="3.60295">
        <ele>29.354368</ele>
        <time>2020-05-27T21:18:19.019Z</time>
      </trkpt>
      <trkpt lat="50.38858" lon="3.60303">
        <ele>29.111076</ele>
        <time>2020-05-27T21:18:27.074Z</time>
      </trkpt>
      <trkpt lat="50.38926" lon="3.60366">
        <ele>29.109958</ele>
        <time>2020-05-27T21:18:38.720Z</time>
      </trkpt>
      <trkpt lat="50.38952" lon="3.60375">
        <ele>29.148266</ele>
        <time>2020-05-27T21:18:42.784Z</time>
      </trkpt>
      <trkpt lat="50.38985" lon="3.60373">
        <ele>29.195436</ele>
        <time>2020-05-27T21:18:48.030Z</time>
      </trkpt>
      <trkpt lat="50.39008" lon="3.60364">
        <ele>29.228868</ele>
        <time>2020-05-27T21:18:51.818Z</time>
      </trkpt>
      <trkpt lat="50.39022" lon="3.60348">
        <ele>29.253465</ele>
        <time>2020-05-27T21:18:54.546Z</time>
      </trkpt>
      <trkpt lat="50.39032" lon="3.60332">
        <ele>29.273181</ele>
        <time>2020-05-27T21:18:56.828Z</time>
      </trkpt>
      <trkpt lat="50.39044" lon="3.60319">
        <ele>29.278316</ele>
        <time>2020-05-27T21:18:59.078Z</time>
      </trkpt>
      <trkpt lat="50.39064" lon="3.60311">
        <ele>29.269205</ele>
        <time>2020-05-27T21:19:02.523Z</time>
      </trkpt>
      <trkpt lat="50.39079" lon="3.60313">
        <ele>29.262514</ele>
        <time>2020-05-27T21:19:04.895Z</time>
      </trkpt>
      <trkpt lat="50.39112" lon="3.60325">
        <ele>29.247821</ele>
        <time>2020-05-27T21:19:10.333Z</time>
      </trkpt>
      <trkpt lat="50.39201" lon="3.6035">
        <ele>29.208257</ele>
        <time>2020-05-27T21:19:23.083Z</time>
      </trkpt>
      <trkpt lat="50.39256" lon="3.60354">
        <ele>28.820019</ele>
        <time>2020-05-27T21:19:30.373Z</time>
      </trkpt>
      <trkpt lat="50.39265" lon="3.60352">
        <ele>28.734859</ele>
        <time>2020-05-27T21:19:31.593Z</time>
      </trkpt>
      <trkpt lat="50.39275" lon="3.60352">
        <ele>28.647651</ele>
        <time>2020-05-27T21:19:32.815Z</time>
      </trkpt>
      <trkpt lat="50.39308" lon="3.60354">
        <ele>28.357687</ele>
        <time>2020-05-27T21:19:37.006Z</time>
      </trkpt>
      <trkpt lat="50.39325" lon="3.60356">
        <ele>28.204162</ele>
        <time>2020-05-27T21:19:39.118Z</time>
      </trkpt>
      <trkpt lat="50.39341" lon="3.6036">
        <ele>28.062818</ele>
        <time>2020-05-27T21:19:41.057Z</time>
      </trkpt>
      <trkpt lat="50.39387" lon="3.60373">
        <ele>27.65045</ele>
        <time>2020-05-27T21:19:46.514Z</time>
      </trkpt>
      <trkpt lat="50.39449" lon="3.60399">
        <ele>26.803031</ele>
        <time>2020-05-27T21:19:53.916Z</time>
      </trkpt>
      <trkpt lat="50.39463" lon="3.60404">
        <ele>26.602838</ele>
        <time>2020-05-27T21:19:55.604Z</time>
      </trkpt>
      <trkpt lat="50.39529" lon="3.60403">
        <ele>25.695413</ele>
        <time>2020-05-27T21:20:03.466Z</time>
      </trkpt>
      <trkpt lat="50.39705" lon="3.60403">
        <ele>23.281411</ele>
        <time>2020-05-27T21:20:23.842Z</time>
      </trkpt>
      <trkpt lat="50.39787" lon="3.60407">
        <ele>22.255222</ele>
        <time>2020-05-27T21:20:33.472Z</time>
      </trkpt>
      <trkpt lat="50.39799" lon="3.60409">
        <ele>22.126509</ele>
        <time>2020-05-27T21:20:34.866Z</time>
      </trkpt>
      <trkpt lat="50.39809" lon="3.6041">
        <ele>22.010113</ele>
        <time>2020-05-27T21:20:36.097Z</time>
      </trkpt>
      <trkpt lat="50.39857" lon="3.60402">
        <ele>21.486782</ele>
        <time>2020-05-27T21:20:41.810Z</time>
      </trkpt>
      <trkpt lat="50.39928" lon="3.6039">
        <ele>20.711304</ele>
        <time>2020-05-27T21:20:50.636Z</time>
      </trkpt>
      <trkpt lat="50.39986" lon="3.60379">
        <ele>20.542815</ele>
        <time>2020-05-27T21:20:58.408Z</time>
      </trkpt>
      <trkpt lat="50.40004" lon="3.60378">
        <ele>20.491326</ele>
        <time>2020-05-27T21:21:00.907Z</time>
      </trkpt>
      <trkpt lat="50.40054" lon="3.60372">
        <ele>20.34819</ele>
        <time>2020-05-27T21:21:08.144Z</time>
      </trkpt>
      <trkpt lat="50.40062" lon="3.60371">
        <ele>20.32683</ele>
        <time>2020-05-27T21:21:09.259Z</time>
      </trkpt>
      <trkpt lat="50.40152" lon="3.6035">
        <ele>20.221157</ele>
        <time>2020-05-27T21:21:22.846Z</time>
      </trkpt>
      <trkpt lat="50.40222" lon="3.60334">
        <ele>20.253209</ele>
        <time>2020-05-27T21:21:33.359Z</time>
      </trkpt>
      <trkpt lat="50.40309" lon="3.60315">
        <ele>20.303066</ele>
        <time>2020-05-27T21:21:46.902Z</time>
      </trkpt>
      <trkpt lat="50.40363" lon="3.60304">
        <ele>20.347944</ele>
        <time>2020-05-27T21:21:55.303Z</time>
      </trkpt>
      <trkpt lat="50.40417" lon="3.60291">
        <ele>20.394273</ele>
        <time>2020-05-27T21:22:03.611Z</time>
      </trkpt>
      <trkpt lat="50.40427" lon="3.6029">
        <ele>20.402068</ele>
        <time>2020-05-27T21:22:05.029Z</time>
      </trkpt>
      <trkpt lat="50.40436" lon="3.60292">
        <ele>20.40972</ele>
        <time>2020-05-27T21:22:06.310Z</time>
      </trkpt>
      <trkpt lat="50.4044" lon="3.60295">
        <ele>20.413503</ele>
        <time>2020-05-27T21:22:06.980Z</time>
      </trkpt>
      <trkpt lat="50.40443" lon="3.60297">
        <ele>20.416697</ele>
        <time>2020-05-27T21:22:07.573Z</time>
      </trkpt>
      <trkpt lat="50.40451" lon="3.60304">
        <ele>20.424329</ele>
        <time>2020-05-27T21:22:08.953Z</time>
      </trkpt>
      <trkpt lat="50.40455" lon="3.60311">
        <ele>20.42902</ele>
        <time>2020-05-27T21:22:09.838Z</time>
      </trkpt>
      <trkpt lat="50.40459" lon="3.60316">
        <ele>20.429171</ele>
        <time>2020-05-27T21:22:10.612Z</time>
      </trkpt>
      <trkpt lat="50.40465" lon="3.60319">
        <ele>20.420759</ele>
        <time>2020-05-27T21:22:11.496Z</time>
      </trkpt>
      <trkpt lat="50.40472" lon="3.60318">
        <ele>20.412566</ele>
        <time>2020-05-27T21:22:12.427Z</time>
      </trkpt>
      <trkpt lat="50.40477" lon="3.60316">
        <ele>20.405684</ele>
        <time>2020-05-27T21:22:13.235Z</time>
      </trkpt>
      <trkpt lat="50.40484" lon="3.60305">
        <ele>20.392268</ele>
        <time>2020-05-27T21:22:14.722Z</time>
      </trkpt>
      <trkpt lat="50.40486" lon="3.60297">
        <ele>20.385429</ele>
        <time>2020-05-27T21:22:15.478Z</time>
      </trkpt>
      <trkpt lat="50.40486" lon="3.60289">
        <ele>20.378835</ele>
        <time>2020-05-27T21:22:16.124Z</time>
      </trkpt>
      <trkpt lat="50.40486" lon="3.60282">
        <ele>20.372293</ele>
        <time>2020-05-27T21:22:16.834Z</time>
      </trkpt>
      <trkpt lat="50.40484" lon="3.60274">
        <ele>20.365633</ele>
        <time>2020-05-27T21:22:17.549Z</time>
      </trkpt>
      <trkpt lat="50.4048" lon="3.60267">
        <ele>20.357899</ele>
        <time>2020-05-27T21:22:18.457Z</time>
      </trkpt>
      <trkpt lat="50.40475" lon="3.60263">
        <ele>20.35005</ele>
        <time>2020-05-27T21:22:19.321Z</time>
      </trkpt>
      <trkpt lat="50.40469" lon="3.60261">
        <ele>20.342342</ele>
        <time>2020-05-27T21:22:20.237Z</time>
      </trkpt>
      <trkpt lat="50.40465" lon="3.60248">
        <ele>20.331033</ele>
        <time>2020-05-27T21:22:21.390Z</time>
      </trkpt>
      <trkpt lat="50.40443" lon="3.60118">
        <ele>20.217143</ele>
        <time>2020-05-27T21:22:33.735Z</time>
      </trkpt>
      <trkpt lat="50.40428" lon="3.60069">
        <ele>20.156476</ele>
        <time>2020-05-27T21:22:38.586Z</time>
      </trkpt>
      <trkpt lat="50.40399" lon="3.59962">
        <ele>19.996127</ele>
        <time>2020-05-27T21:22:48.874Z</time>
      </trkpt>
      <trkpt lat="50.40398" lon="3.59957">
        <ele>19.988294</ele>
        <time>2020-05-27T21:22:49.485Z</time>
      </trkpt>
      <trkpt lat="50.40385" lon="3.59896">
        <ele>19.899653</ele>
        <time>2020-05-27T21:22:55.198Z</time>
      </trkpt>
      <trkpt lat="50.40382" lon="3.59841">
        <ele>19.822629</ele>
        <time>2020-05-27T21:23:00.195Z</time>
      </trkpt>
      <trkpt lat="50.40382" lon="3.59802">
        <ele>19.735879</ele>
        <time>2020-05-27T21:23:03.666Z</time>
      </trkpt>
      <trkpt lat="50.40391" lon="3.59736">
        <ele>19.550455</ele>
        <time>2020-05-27T21:23:09.768Z</time>
      </trkpt>
      <trkpt lat="50.40421" lon="3.59648">
        <ele>19.278533</ele>
        <time>2020-05-27T21:23:17.986Z</time>
      </trkpt>
      <trkpt lat="50.40471" lon="3.59561">
        <ele>19.095615</ele>
        <time>2020-05-27T21:23:27.892Z</time>
      </trkpt>
      <trkpt lat="50.40492" lon="3.59515">
        <ele>19.229601</ele>
        <time>2020-05-27T21:23:32.883Z</time>
      </trkpt>
      <trkpt lat="50.4051" lon="3.59474">
        <ele>19.34738</ele>
        <time>2020-05-27T21:23:37.411Z</time>
      </trkpt>
      <trkpt lat="50.40787" lon="3.58771">
        <ele>21.295272</ele>
        <time>2020-05-27T21:25:08.392Z</time>
      </trkpt>
      <trkpt lat="50.40842" lon="3.58631">
        <ele>21.072518</ele>
        <time>2020-05-27T21:25:21.422Z</time>
      </trkpt>
      <trkpt lat="50.40868" lon="3.58566">
        <ele>21.012194</ele>
        <time>2020-05-27T21:25:27.920Z</time>
      </trkpt>
      <trkpt lat="50.40884" lon="3.58528">
        <ele>20.978045</ele>
        <time>2020-05-27T21:25:32.091Z</time>
      </trkpt>
      <trkpt lat="50.40898" lon="3.5851">
        <ele>20.957569</ele>
        <time>2020-05-27T21:25:34.754Z</time>
      </trkpt>
      <trkpt lat="50.40905" lon="3.5851">
        <ele>20.949506</ele>
        <time>2020-05-27T21:25:35.747Z</time>
      </trkpt>
      <trkpt lat="50.40911" lon="3.58508">
        <ele>20.942244</ele>
        <time>2020-05-27T21:25:36.736Z</time>
      </trkpt>
      <trkpt lat="50.40917" lon="3.58503">
        <ele>20.933638</ele>
        <time>2020-05-27T21:25:37.720Z</time>
      </trkpt>
      <trkpt lat="50.40923" lon="3.58495">
        <ele>20.924984</ele>
        <time>2020-05-27T21:25:38.951Z</time>
      </trkpt>
      <trkpt lat="50.40926" lon="3.58484">
        <ele>20.915571</ele>
        <time>2020-05-27T21:25:40.264Z</time>
      </trkpt>
      <trkpt lat="50.40925" lon="3.58465">
        <ele>20.901931</ele>
        <time>2020-05-27T21:25:42.111Z</time>
      </trkpt>
      <trkpt lat="50.4092" lon="3.58449">
        <ele>20.888419</ele>
        <time>2020-05-27T21:25:43.860Z</time>
      </trkpt>
      <trkpt lat="50.40916" lon="3.58444">
        <ele>20.882134</ele>
        <time>2020-05-27T21:25:44.786Z</time>
      </trkpt>
      <trkpt lat="50.40912" lon="3.5844">
        <ele>20.876832</ele>
        <time>2020-05-27T21:25:45.606Z</time>
      </trkpt>
      <trkpt lat="50.40904" lon="3.58438">
        <ele>20.867735</ele>
        <time>2020-05-27T21:25:46.846Z</time>
      </trkpt>
      <trkpt lat="50.40897" lon="3.58439">
        <ele>20.85895</ele>
        <time>2020-05-27T21:25:48.115Z</time>
      </trkpt>
      <trkpt lat="50.40889" lon="3.58444">
        <ele>20.85982</ele>
        <time>2020-05-27T21:25:49.284Z</time>
      </trkpt>
      <trkpt lat="50.40861" lon="3.58435">
        <ele>20.877753</ele>
        <time>2020-05-27T21:25:54.086Z</time>
      </trkpt>
      <trkpt lat="50.40701" lon="3.58282">
        <ele>20.81911</ele>
        <time>2020-05-27T21:26:21.981Z</time>
      </trkpt>
      <trkpt lat="50.40533" lon="3.58096">
        <ele>19.960423</ele>
        <time>2020-05-27T21:26:49.334Z</time>
      </trkpt>
      <trkpt lat="50.40484" lon="3.58031">
        <ele>19.608314</ele>
        <time>2020-05-27T21:26:57.788Z</time>
      </trkpt>
      <trkpt lat="50.40442" lon="3.57978">
        <ele>19.331385</ele>
        <time>2020-05-27T21:27:04.729Z</time>
      </trkpt>
      <trkpt lat="50.40413" lon="3.57939">
        <ele>19.202466</ele>
        <time>2020-05-27T21:27:09.683Z</time>
      </trkpt>
      <trkpt lat="50.40335" lon="3.57838">
        <ele>18.860226</ele>
        <time>2020-05-27T21:27:23.528Z</time>
      </trkpt>
      <trkpt lat="50.40021" lon="3.57429">
        <ele>18.792727</ele>
        <time>2020-05-27T21:28:24.510Z</time>
      </trkpt>
      <trkpt lat="50.40014" lon="3.57419">
        <ele>18.792802</ele>
        <time>2020-05-27T21:28:25.899Z</time>
      </trkpt>
      <trkpt lat="50.39166" lon="3.56304">
        <ele>18.588574</ele>
        <time>2020-05-27T21:31:10.312Z</time>
      </trkpt>
      <trkpt lat="50.39044" lon="3.56152">
        <ele>18.082366</ele>
        <time>2020-05-27T21:31:30.559Z</time>
      </trkpt>
      <trkpt lat="50.38908" lon="3.5597">
        <ele>18.051767</ele>
        <time>2020-05-27T21:31:56.986Z</time>
      </trkpt>
      <trkpt lat="50.389" lon="3.55953">
        <ele>18.124323</ele>
        <time>2020-05-27T21:31:59.526Z</time>
      </trkpt>
      <trkpt lat="50.38892" lon="3.55932">
        <ele>18.209916</ele>
        <time>2020-05-27T21:32:02.038Z</time>
      </trkpt>
      <trkpt lat="50.38894" lon="3.55926">
        <ele>18.232661</ele>
        <time>2020-05-27T21:32:02.724Z</time>
      </trkpt>
      <trkpt lat="50.38894" lon="3.55914">
        <ele>18.274263</ele>
        <time>2020-05-27T21:32:04.233Z</time>
      </trkpt>
      <trkpt lat="50.38893" lon="3.55908">
        <ele>18.295717</ele>
        <time>2020-05-27T21:32:05.033Z</time>
      </trkpt>
      <trkpt lat="50.3889" lon="3.55902">
        <ele>18.318504</ele>
        <time>2020-05-27T21:32:05.729Z</time>
      </trkpt>
      <trkpt lat="50.38887" lon="3.55897">
        <ele>18.342958</ele>
        <time>2020-05-27T21:32:06.472Z</time>
      </trkpt>
      <trkpt lat="50.38882" lon="3.55894">
        <ele>18.373489</ele>
        <time>2020-05-27T21:32:07.360Z</time>
      </trkpt>
      <trkpt lat="50.38876" lon="3.55893">
        <ele>18.406239</ele>
        <time>2020-05-27T21:32:08.334Z</time>
      </trkpt>
      <trkpt lat="50.38871" lon="3.55895">
        <ele>18.437258</ele>
        <time>2020-05-27T21:32:09.275Z</time>
      </trkpt>
      <trkpt lat="50.38861" lon="3.55889">
        <ele>18.494436</ele>
        <time>2020-05-27T21:32:11.460Z</time>
      </trkpt>
      <trkpt lat="50.38831" lon="3.55856">
        <ele>18.691156</ele>
        <time>2020-05-27T21:32:17.858Z</time>
      </trkpt>
      <trkpt lat="50.38797" lon="3.55793">
        <ele>18.979673</ele>
        <time>2020-05-27T21:32:27.117Z</time>
      </trkpt>
      <trkpt lat="50.38716" lon="3.55595">
        <ele>19.808101</ele>
        <time>2020-05-27T21:32:53.016Z</time>
      </trkpt>
      <trkpt lat="50.38691" lon="3.55486">
        <ele>19.94779</ele>
        <time>2020-05-27T21:33:04.907Z</time>
      </trkpt>
      <trkpt lat="50.38691" lon="3.55432">
        <ele>19.983954</ele>
        <time>2020-05-27T21:33:12.037Z</time>
      </trkpt>
      <trkpt lat="50.38694" lon="3.55402">
        <ele>20.00447</ele>
        <time>2020-05-27T21:33:15.915Z</time>
      </trkpt>
      <trkpt lat="50.38709" lon="3.55361">
        <ele>20.036236</ele>
        <time>2020-05-27T21:33:21.819Z</time>
      </trkpt>
      <trkpt lat="50.38779" lon="3.55264">
        <ele>19.977631</ele>
        <time>2020-05-27T21:33:40.131Z</time>
      </trkpt>
      <trkpt lat="50.38835" lon="3.55192">
        <ele>19.857438</ele>
        <time>2020-05-27T21:33:54.340Z</time>
      </trkpt>
      <trkpt lat="50.38833" lon="3.55174">
        <ele>19.837761</ele>
        <time>2020-05-27T21:33:56.691Z</time>
      </trkpt>
      <trkpt lat="50.38807" lon="3.55137">
        <ele>19.779732</ele>
        <time>2020-05-27T21:34:03.436Z</time>
      </trkpt>
      <trkpt lat="50.38786" lon="3.551">
        <ele>19.744431</ele>
        <time>2020-05-27T21:34:09.519Z</time>
      </trkpt>
      <trkpt lat="50.38779" lon="3.55089">
        <ele>19.733739</ele>
        <time>2020-05-27T21:34:11.546Z</time>
      </trkpt>
      <trkpt lat="50.38779" lon="3.55081">
        <ele>19.728552</ele>
        <time>2020-05-27T21:34:12.219Z</time>
      </trkpt>
      <trkpt lat="50.38778" lon="3.55074">
        <ele>19.723308</ele>
        <time>2020-05-27T21:34:12.892Z</time>
      </trkpt>
      <trkpt lat="50.38784" lon="3.55054">
        <ele>19.708982</ele>
        <time>2020-05-27T21:34:14.774Z</time>
      </trkpt>
      <trkpt lat="50.38789" lon="3.55036">
        <ele>19.695705</ele>
        <time>2020-05-27T21:34:16.610Z</time>
      </trkpt>
      <trkpt lat="50.38883" lon="3.54863">
        <ele>19.829074</ele>
        <time>2020-05-27T21:34:38.048Z</time>
      </trkpt>
      <trkpt lat="50.38941" lon="3.54734">
        <ele>20.432899</ele>
        <time>2020-05-27T21:34:55.959Z</time>
      </trkpt>
      <trkpt lat="50.38977" lon="3.54618">
        <ele>20.627635</ele>
        <time>2020-05-27T21:35:11.729Z</time>
      </trkpt>
      <trkpt lat="50.3903" lon="3.54445">
        <ele>20.516347</ele>
        <time>2020-05-27T21:35:28.875Z</time>
      </trkpt>
      <trkpt lat="50.39033" lon="3.54435">
        <ele>20.509702</ele>
        <time>2020-05-27T21:35:29.608Z</time>
      </trkpt>
      <trkpt lat="50.3908" lon="3.54284">
        <ele>19.854688</ele>
        <time>2020-05-27T21:35:42.645Z</time>
      </trkpt>
      <trkpt lat="50.39081" lon="3.54281">
        <ele>19.84276</ele>
        <time>2020-05-27T21:35:42.853Z</time>
      </trkpt>
      <trkpt lat="50.39176" lon="3.53971">
        <ele>19.22914</ele>
        <time>2020-05-27T21:36:14.460Z</time>
      </trkpt>
      <trkpt lat="50.39182" lon="3.5396">
        <ele>19.222318</ele>
        <time>2020-05-27T21:36:15.741Z</time>
      </trkpt>
      <trkpt lat="50.39197" lon="3.53929">
        <ele>19.203699</ele>
        <time>2020-05-27T21:36:19.632Z</time>
      </trkpt>
      <trkpt lat="50.39239" lon="3.53865">
        <ele>19.200199</ele>
        <time>2020-05-27T21:36:28.260Z</time>
      </trkpt>
      <trkpt lat="50.39275" lon="3.53805">
        <ele>19.200379</ele>
        <time>2020-05-27T21:36:35.570Z</time>
      </trkpt>
      <trkpt lat="50.39295" lon="3.53756">
        <ele>19.200509</ele>
        <time>2020-05-27T21:36:40.727Z</time>
      </trkpt>
      <trkpt lat="50.39352" lon="3.53592">
        <ele>19.957752</ele>
        <time>2020-05-27T21:37:01.208Z</time>
      </trkpt>
      <trkpt lat="50.39367" lon="3.5355">
        <ele>20.235925</ele>
        <time>2020-05-27T21:37:07.216Z</time>
      </trkpt>
      <trkpt lat="50.39392" lon="3.53498">
        <ele>20.619477</ele>
        <time>2020-05-27T21:37:15.491Z</time>
      </trkpt>
      <trkpt lat="50.39402" lon="3.53488">
        <ele>20.725512</ele>
        <time>2020-05-27T21:37:18.028Z</time>
      </trkpt>
      <trkpt lat="50.39406" lon="3.53481">
        <ele>20.779865</ele>
        <time>2020-05-27T21:37:19.170Z</time>
      </trkpt>
      <trkpt lat="50.39409" lon="3.53474">
        <ele>20.829474</ele>
        <time>2020-05-27T21:37:20.221Z</time>
      </trkpt>
      <trkpt lat="50.39394" lon="3.53454">
        <ele>20.959766</ele>
        <time>2020-05-27T21:37:23.999Z</time>
      </trkpt>
      <trkpt lat="50.39388" lon="3.53445">
        <ele>21.018724</ele>
        <time>2020-05-27T21:37:25.832Z</time>
      </trkpt>
      <trkpt lat="50.39427" lon="3.53377">
        <ele>21.412691</ele>
        <time>2020-05-27T21:37:40.225Z</time>
      </trkpt>
      <trkpt lat="50.39485" lon="3.53276">
        <ele>22.003638</ele>
        <time>2020-05-27T21:37:59.426Z</time>
      </trkpt>
      <trkpt lat="50.39532" lon="3.53196">
        <ele>21.643659</ele>
        <time>2020-05-27T21:38:12.392Z</time>
      </trkpt>
      <trkpt lat="50.39554" lon="3.53161">
        <ele>21.436976</ele>
        <time>2020-05-27T21:38:17.918Z</time>
      </trkpt>
      <trkpt lat="50.39558" lon="3.53156">
        <ele>21.400907</ele>
        <time>2020-05-27T21:38:18.790Z</time>
      </trkpt>
      <trkpt lat="50.3956" lon="3.53158">
        <ele>21.383478</ele>
        <time>2020-05-27T21:38:19.244Z</time>
      </trkpt>
      <trkpt lat="50.39563" lon="3.53157">
        <ele>21.36171</ele>
        <time>2020-05-27T21:38:19.820Z</time>
      </trkpt>
      <trkpt lat="50.39564" lon="3.53156">
        <ele>21.353892</ele>
        <time>2020-05-27T21:38:20.027Z</time>
      </trkpt>
      <trkpt lat="50.39565" lon="3.53155">
        <ele>21.343876</ele>
        <time>2020-05-27T21:38:20.330Z</time>
      </trkpt>
      <trkpt lat="50.39565" lon="3.5314">
        <ele>21.279896</ele>
        <time>2020-05-27T21:38:22.018Z</time>
      </trkpt>
      <trkpt lat="50.39563" lon="3.53139">
        <ele>21.264471</ele>
        <time>2020-05-27T21:38:22.450Z</time>
      </trkpt>
      <trkpt lat="50.39565" lon="3.53132">
        <ele>21.235222</ele>
        <time>2020-05-27T21:38:23.146Z</time>
      </trkpt>
      <trkpt lat="50.39601" lon="3.52997">
        <ele>20.579859</ele>
        <time>2020-05-27T21:38:39.413Z</time>
      </trkpt>
      <trkpt lat="50.39611" lon="3.5295">
        <ele>20.346776</ele>
        <time>2020-05-27T21:38:44.863Z</time>
      </trkpt>
      <trkpt lat="50.39627" lon="3.52944">
        <ele>20.221635</ele>
        <time>2020-05-27T21:38:47.821Z</time>
      </trkpt>
      <trkpt lat="50.39648" lon="3.52936">
        <ele>20.06256</ele>
        <time>2020-05-27T21:38:51.713Z</time>
      </trkpt>
      <trkpt lat="50.39659" lon="3.52929">
        <ele>19.971556</ele>
        <time>2020-05-27T21:38:53.892Z</time>
      </trkpt>
      <trkpt lat="50.39671" lon="3.52922">
        <ele>19.880605</ele>
        <time>2020-05-27T21:38:56.109Z</time>
      </trkpt>
      <trkpt lat="50.3969" lon="3.52909">
        <ele>19.728258</ele>
        <time>2020-05-27T21:38:59.916Z</time>
      </trkpt>
      <trkpt lat="50.39694" lon="3.52903">
        <ele>19.685166</ele>
        <time>2020-05-27T21:39:00.930Z</time>
      </trkpt>
      <trkpt lat="50.39713" lon="3.52881">
        <ele>19.512458</ele>
        <time>2020-05-27T21:39:05.406Z</time>
      </trkpt>
      <trkpt lat="50.3972" lon="3.5287">
        <ele>19.508248</ele>
        <time>2020-05-27T21:39:07.196Z</time>
      </trkpt>
      <trkpt lat="50.39731" lon="3.52853">
        <ele>19.508627</ele>
        <time>2020-05-27T21:39:10.264Z</time>
      </trkpt>
      <trkpt lat="50.3974" lon="3.52834">
        <ele>19.508983</ele>
        <time>2020-05-27T21:39:13.156Z</time>
      </trkpt>
      <trkpt lat="50.39746" lon="3.52821">
        <ele>19.509233</ele>
        <time>2020-05-27T21:39:15.124Z</time>
      </trkpt>
      <trkpt lat="50.39775" lon="3.52801">
        <ele>19.50998</ele>
        <time>2020-05-27T21:39:21.454Z</time>
      </trkpt>
      <trkpt lat="50.3981" lon="3.52764">
        <ele>19.511004</ele>
        <time>2020-05-27T21:39:30.248Z</time>
      </trkpt>
      <trkpt lat="50.39817" lon="3.52757">
        <ele>19.511197</ele>
        <time>2020-05-27T21:39:32.026Z</time>
      </trkpt>
      <trkpt lat="50.39852" lon="3.52715">
        <ele>19.512247</ele>
        <time>2020-05-27T21:39:41.387Z</time>
      </trkpt>
      <trkpt lat="50.39908" lon="3.52634">
        <ele>19.85609</ele>
        <time>2020-05-27T21:39:57.929Z</time>
      </trkpt>
      <trkpt lat="50.39912" lon="3.52629">
        <ele>19.881551</ele>
        <time>2020-05-27T21:39:59.126Z</time>
      </trkpt>
      <trkpt lat="50.39931" lon="3.52607">
        <ele>19.990265</ele>
        <time>2020-05-27T21:40:04.047Z</time>
      </trkpt>
      <trkpt lat="50.39933" lon="3.52593">
        <ele>20.033754</ele>
        <time>2020-05-27T21:40:05.522Z</time>
      </trkpt>
      <trkpt lat="50.39931" lon="3.52491">
        <ele>20.340019</ele>
        <time>2020-05-27T21:40:16.673Z</time>
      </trkpt>
      <trkpt lat="50.39934" lon="3.52403">
        <ele>20.912428</ele>
        <time>2020-05-27T21:40:27.188Z</time>
      </trkpt>
      <trkpt lat="50.39941" lon="3.52335">
        <ele>21.384209</ele>
        <time>2020-05-27T21:40:35.608Z</time>
      </trkpt>
      <trkpt lat="50.39944" lon="3.52308">
        <ele>21.571433</ele>
        <time>2020-05-27T21:40:41.043Z</time>
      </trkpt>
      <trkpt lat="50.39947" lon="3.52218">
        <ele>22.184976</ele>
        <time>2020-05-27T21:40:54.869Z</time>
      </trkpt>
      <trkpt lat="50.39927" lon="3.52112">
        <ele>22.205338</ele>
        <time>2020-05-27T21:41:11.248Z</time>
      </trkpt>
      <trkpt lat="50.39918" lon="3.52089">
        <ele>22.183366</ele>
        <time>2020-05-27T21:41:15.778Z</time>
      </trkpt>
      <trkpt lat="50.3989" lon="3.52026">
        <ele>22.121076</ele>
        <time>2020-05-27T21:41:24.806Z</time>
      </trkpt>
      <trkpt lat="50.39887" lon="3.52003">
        <ele>22.1025</ele>
        <time>2020-05-27T21:41:27.500Z</time>
      </trkpt>
      <trkpt lat="50.3989" lon="3.51967">
        <ele>22.072348</ele>
        <time>2020-05-27T21:41:31.516Z</time>
      </trkpt>
      <trkpt lat="50.39946" lon="3.51809">
        <ele>20.600987</ele>
        <time>2020-05-27T21:41:50.340Z</time>
      </trkpt>
      <trkpt lat="50.39978" lon="3.51733">
        <ele>19.776403</ele>
        <time>2020-05-27T21:41:59.801Z</time>
      </trkpt>
      <trkpt lat="50.40005" lon="3.51669">
        <ele>19.35639</ele>
        <time>2020-05-27T21:42:08.276Z</time>
      </trkpt>
      <trkpt lat="50.40029" lon="3.51613">
        <ele>19.167596</ele>
        <time>2020-05-27T21:42:16.044Z</time>
      </trkpt>
      <trkpt lat="50.40046" lon="3.51559">
        <ele>19.002551</ele>
        <time>2020-05-27T21:42:23.363Z</time>
      </trkpt>
      <trkpt lat="50.40051" lon="3.5154">
        <ele>18.943537</ele>
        <time>2020-05-27T21:42:26.007Z</time>
      </trkpt>
      <trkpt lat="50.4008" lon="3.51432">
        <ele>18.72355</ele>
        <time>2020-05-27T21:42:41.288Z</time>
      </trkpt>
      <trkpt lat="50.40115" lon="3.51323">
        <ele>18.855082</ele>
        <time>2020-05-27T21:42:57.361Z</time>
      </trkpt>
      <trkpt lat="50.40134" lon="3.51262">
        <ele>18.928067</ele>
        <time>2020-05-27T21:43:06.668Z</time>
      </trkpt>
      <trkpt lat="50.40147" lon="3.51222">
        <ele>18.976563</ele>
        <time>2020-05-27T21:43:12.882Z</time>
      </trkpt>
      <trkpt lat="50.40162" lon="3.51176">
        <ele>18.995899</ele>
        <time>2020-05-27T21:43:19.944Z</time>
      </trkpt>
      <trkpt lat="50.40191" lon="3.51117">
        <ele>18.991832</ele>
        <time>2020-05-27T21:43:29.770Z</time>
      </trkpt>
      <trkpt lat="50.4021" lon="3.51094">
        <ele>18.989827</ele>
        <time>2020-05-27T21:43:34.556Z</time>
      </trkpt>
      <trkpt lat="50.40333" lon="3.50945">
        <ele>18.969762</ele>
        <time>2020-05-27T21:44:05.125Z</time>
      </trkpt>
      <trkpt lat="50.40382" lon="3.50876">
        <ele>18.957413</ele>
        <time>2020-05-27T21:44:17.589Z</time>
      </trkpt>
      <trkpt lat="50.40408" lon="3.50841">
        <ele>18.951091</ele>
        <time>2020-05-27T21:44:25.071Z</time>
      </trkpt>
      <trkpt lat="50.40418" lon="3.50816">
        <ele>19.007146</ele>
        <time>2020-05-27T21:44:29.688Z</time>
      </trkpt>
      <trkpt lat="50.40421" lon="3.508">
        <ele>19.098211</ele>
        <time>2020-05-27T21:44:31.919Z</time>
      </trkpt>
      <trkpt lat="50.4043" lon="3.50758">
        <ele>19.33682</ele>
        <time>2020-05-27T21:44:38.512Z</time>
      </trkpt>
      <trkpt lat="50.40434" lon="3.50678">
        <ele>19.772884</ele>
        <time>2020-05-27T21:44:50.291Z</time>
      </trkpt>
      <trkpt lat="50.40437" lon="3.50634">
        <ele>20.012011</ele>
        <time>2020-05-27T21:44:57.191Z</time>
      </trkpt>
      <trkpt lat="50.40444" lon="3.5055">
        <ele>20.473974</ele>
        <time>2020-05-27T21:45:10.808Z</time>
      </trkpt>
      <trkpt lat="50.40434" lon="3.50496">
        <ele>20.578601</ele>
        <time>2020-05-27T21:45:19.603Z</time>
      </trkpt>
      <trkpt lat="50.40405" lon="3.50443">
        <ele>20.698202</ele>
        <time>2020-05-27T21:45:30.021Z</time>
      </trkpt>
      <trkpt lat="50.4036" lon="3.50396">
        <ele>20.845699</ele>
        <time>2020-05-27T21:45:41.128Z</time>
      </trkpt>
      <trkpt lat="50.40314" lon="3.50363">
        <ele>20.948191</ele>
        <time>2020-05-27T21:45:50.440Z</time>
      </trkpt>
      <trkpt lat="50.40249" lon="3.50316">
        <ele>20.488428</ele>
        <time>2020-05-27T21:46:03.484Z</time>
      </trkpt>
      <trkpt lat="50.4023" lon="3.50305">
        <ele>20.361093</ele>
        <time>2020-05-27T21:46:07.009Z</time>
      </trkpt>
      <trkpt lat="50.40206" lon="3.50296">
        <ele>20.203035</ele>
        <time>2020-05-27T21:46:11.294Z</time>
      </trkpt>
      <trkpt lat="50.40202" lon="3.50295">
        <ele>20.174167</ele>
        <time>2020-05-27T21:46:12.067Z</time>
      </trkpt>
      <trkpt lat="50.40159" lon="3.50285">
        <ele>19.899214</ele>
        <time>2020-05-27T21:46:19.909Z</time>
      </trkpt>
      <trkpt lat="50.40127" lon="3.50263">
        <ele>19.791468</ele>
        <time>2020-05-27T21:46:26.498Z</time>
      </trkpt>
      <trkpt lat="50.40114" lon="3.50249">
        <ele>19.770605</ele>
        <time>2020-05-27T21:46:29.520Z</time>
      </trkpt>
      <trkpt lat="50.40103" lon="3.50231">
        <ele>19.749771</ele>
        <time>2020-05-27T21:46:31.781Z</time>
      </trkpt>
      <trkpt lat="50.40081" lon="3.50179">
        <ele>19.697683</ele>
        <time>2020-05-27T21:46:37.481Z</time>
      </trkpt>
      <trkpt lat="50.40042" lon="3.50031">
        <ele>19.62708</ele>
        <time>2020-05-27T21:46:52.675Z</time>
      </trkpt>
      <trkpt lat="50.40042" lon="3.50031">
        <ele>19.62708</ele>
        <time>2020-05-27T21:46:52.735Z</time>
      </trkpt>
      <trkpt lat="50.39987" lon="3.49845">
        <ele>19.9421</ele>
        <time>2020-05-27T21:47:13.699Z</time>
      </trkpt>
      <trkpt lat="50.39728" lon="3.49145">
        <ele>20.79066</ele>
        <time>2020-05-27T21:48:32.941Z</time>
      </trkpt>
      <trkpt lat="50.39717" lon="3.49118">
        <ele>20.845511</ele>
        <time>2020-05-27T21:48:36.528Z</time>
      </trkpt>
      <trkpt lat="50.39725" lon="3.4911">
        <ele>20.871197</ele>
        <time>2020-05-27T21:48:38.029Z</time>
      </trkpt>
      <trkpt lat="50.40066" lon="3.48821">
        <ele>22.878155</ele>
        <time>2020-05-27T21:49:44.176Z</time>
      </trkpt>
      <trkpt lat="50.40148" lon="3.48749">
        <ele>23.710323</ele>
        <time>2020-05-27T21:49:59.657Z</time>
      </trkpt>
      <trkpt lat="50.40152" lon="3.48754">
        <ele>23.753879</ele>
        <time>2020-05-27T21:50:00.665Z</time>
      </trkpt>
      <trkpt lat="50.40163" lon="3.48754">
        <ele>23.845279</ele>
        <time>2020-05-27T21:50:02.633Z</time>
      </trkpt>
      <trkpt lat="50.40165" lon="3.48752">
        <ele>23.865539</ele>
        <time>2020-05-27T21:50:03.091Z</time>
      </trkpt>
      <trkpt lat="50.40166" lon="3.4875">
        <ele>23.883515</ele>
        <time>2020-05-27T21:50:03.388Z</time>
      </trkpt>
      <trkpt lat="50.40168" lon="3.48746">
        <ele>23.916175</ele>
        <time>2020-05-27T21:50:04.065Z</time>
      </trkpt>
      <trkpt lat="50.4017" lon="3.48741">
        <ele>23.943168</ele>
        <time>2020-05-27T21:50:04.541Z</time>
      </trkpt>
      <trkpt lat="50.4017" lon="3.48736">
        <ele>23.970836</ele>
        <time>2020-05-27T21:50:05.036Z</time>
      </trkpt>
      <trkpt lat="50.4017" lon="3.48732">
        <ele>23.993394</ele>
        <time>2020-05-27T21:50:05.432Z</time>
      </trkpt>
      <trkpt lat="50.40313" lon="3.487">
        <ele>26.286056</ele>
        <time>2020-05-27T21:50:36.733Z</time>
      </trkpt>
      <trkpt lat="50.40515" lon="3.48653">
        <ele>29.623495</ele>
        <time>2020-05-27T21:51:25.783Z</time>
      </trkpt>
      <trkpt lat="50.41061" lon="3.48536">
        <ele>29.694343</ele>
        <time>2020-05-27T21:52:42.750Z</time>
      </trkpt>
      <trkpt lat="50.41208" lon="3.48505">
        <ele>30.604085</ele>
        <time>2020-05-27T21:53:08.884Z</time>
      </trkpt>
      <trkpt lat="50.41351" lon="3.48471">
        <ele>31.689361</ele>
        <time>2020-05-27T21:53:37.374Z</time>
      </trkpt>
      <trkpt lat="50.41944" lon="3.4834">
        <ele>34.261981</ele>
        <time>2020-05-27T21:55:16.724Z</time>
      </trkpt>
      <trkpt lat="50.42001" lon="3.48327">
        <ele>34.267004</ele>
        <time>2020-05-27T21:55:24.075Z</time>
      </trkpt>
      <trkpt lat="50.42081" lon="3.48311">
        <ele>33.353131</ele>
        <time>2020-05-27T21:55:33.876Z</time>
      </trkpt>
      <trkpt lat="50.42504" lon="3.4822">
        <ele>28.480996</ele>
        <time>2020-05-27T21:56:24.758Z</time>
      </trkpt>
      <trkpt lat="50.42554" lon="3.48212">
        <ele>27.964173</ele>
        <time>2020-05-27T21:56:30.991Z</time>
      </trkpt>
      <trkpt lat="50.42609" lon="3.48202">
        <ele>27.513</ele>
        <time>2020-05-27T21:56:37.810Z</time>
      </trkpt>
      <trkpt lat="50.42687" lon="3.48191">
        <ele>26.88168</ele>
        <time>2020-05-27T21:56:47.554Z</time>
      </trkpt>
      <trkpt lat="50.42709" lon="3.48188">
        <ele>26.699531</ele>
        <time>2020-05-27T21:56:50.637Z</time>
      </trkpt>
      <trkpt lat="50.42726" lon="3.48185">
        <ele>26.618525</ele>
        <time>2020-05-27T21:56:52.728Z</time>
      </trkpt>
      <trkpt lat="50.43063" lon="3.48137">
        <ele>25.947278</ele>
        <time>2020-05-27T21:57:40.445Z</time>
      </trkpt>
      <trkpt lat="50.43236" lon="3.48112">
        <ele>26.390311</ele>
        <time>2020-05-27T21:58:08.468Z</time>
      </trkpt>
      <trkpt lat="50.43248" lon="3.4811">
        <ele>26.423032</ele>
        <time>2020-05-27T21:58:13.008Z</time>
      </trkpt>
      <trkpt lat="50.43253" lon="3.4811">
        <ele>26.437893</ele>
        <time>2020-05-27T21:58:15.068Z</time>
      </trkpt>
      <trkpt lat="50.4326" lon="3.48104">
        <ele>26.451929</ele>
        <time>2020-05-27T21:58:18.135Z</time>
      </trkpt>
      <trkpt lat="50.43265" lon="3.48098">
        <ele>26.463883</ele>
        <time>2020-05-27T21:58:20.737Z</time>
      </trkpt>
      <trkpt lat="50.43274" lon="3.48103">
        <ele>26.480175</ele>
        <time>2020-05-27T21:58:22.375Z</time>
      </trkpt>
      <trkpt lat="50.43294" lon="3.48105">
        <ele>26.514641</ele>
        <time>2020-05-27T21:58:25.527Z</time>
      </trkpt>
      <trkpt lat="50.43654" lon="3.48056">
        <ele>26.565056</ele>
        <time>2020-05-27T21:59:20.561Z</time>
      </trkpt>
      <trkpt lat="50.44124" lon="3.4799">
        <ele>23.146811</ele>
        <time>2020-05-27T22:00:19.573Z</time>
      </trkpt>
      <trkpt lat="50.44287" lon="3.47965">
        <ele>22.720722</ele>
        <time>2020-05-27T22:00:43.281Z</time>
      </trkpt>
      <trkpt lat="50.44293" lon="3.47958">
        <ele>22.706964</ele>
        <time>2020-05-27T22:00:44.629Z</time>
      </trkpt>
      <trkpt lat="50.44296" lon="3.47945">
        <ele>22.689767</ele>
        <time>2020-05-27T22:00:45.768Z</time>
      </trkpt>
      <trkpt lat="50.44315" lon="3.47832">
        <ele>22.253732</ele>
        <time>2020-05-27T22:00:55.876Z</time>
      </trkpt>
      <trkpt lat="50.44319" lon="3.4764">
        <ele>21.322755</ele>
        <time>2020-05-27T22:01:11.124Z</time>
      </trkpt>
      <trkpt lat="50.44336" lon="3.47551">
        <ele>20.673267</ele>
        <time>2020-05-27T22:01:18.180Z</time>
      </trkpt>
      <trkpt lat="50.44348" lon="3.47498">
        <ele>20.26109</ele>
        <time>2020-05-27T22:01:22.495Z</time>
      </trkpt>
      <trkpt lat="50.44353" lon="3.47468">
        <ele>20.043123</ele>
        <time>2020-05-27T22:01:24.763Z</time>
      </trkpt>
      <trkpt lat="50.4435" lon="3.47433">
        <ele>19.786013</ele>
        <time>2020-05-27T22:01:27.532Z</time>
      </trkpt>
      <trkpt lat="50.44319" lon="3.47294">
        <ele>18.856325</ele>
        <time>2020-05-27T22:01:38.891Z</time>
      </trkpt>
      <trkpt lat="50.44309" lon="3.4725">
        <ele>18.607919</ele>
        <time>2020-05-27T22:01:42.484Z</time>
      </trkpt>
      <trkpt lat="50.44298" lon="3.47198">
        <ele>18.319293</ele>
        <time>2020-05-27T22:01:46.826Z</time>
      </trkpt>
      <trkpt lat="50.44287" lon="3.47149">
        <ele>18.043894</ele>
        <time>2020-05-27T22:01:51.027Z</time>
      </trkpt>
      <trkpt lat="50.44266" lon="3.47044">
        <ele>17.666346</ele>
        <time>2020-05-27T22:02:00.351Z</time>
      </trkpt>
      <trkpt lat="50.44205" lon="3.46765">
        <ele>17.364619</ele>
        <time>2020-05-27T22:02:27.459Z</time>
      </trkpt>
      <trkpt lat="50.44202" lon="3.46739">
        <ele>17.368797</ele>
        <time>2020-05-27T22:02:30.155Z</time>
      </trkpt>
      <trkpt lat="50.44203" lon="3.46718">
        <ele>17.372103</ele>
        <time>2020-05-27T22:02:32.180Z</time>
      </trkpt>
      <trkpt lat="50.44216" lon="3.46676">
        <ele>17.37951</ele>
        <time>2020-05-27T22:02:36.815Z</time>
      </trkpt>
      <trkpt lat="50.44309" lon="3.46548">
        <ele>17.415718</ele>
        <time>2020-05-27T22:02:55.514Z</time>
      </trkpt>
      <trkpt lat="50.44338" lon="3.46498">
        <ele>17.431508</ele>
        <time>2020-05-27T22:03:01.734Z</time>
      </trkpt>
      <trkpt lat="50.44346" lon="3.46481">
        <ele>17.436657</ele>
        <time>2020-05-27T22:03:03.690Z</time>
      </trkpt>
      <trkpt lat="50.44355" lon="3.46461">
        <ele>17.442252</ele>
        <time>2020-05-27T22:03:05.990Z</time>
      </trkpt>
      <trkpt lat="50.44375" lon="3.46417">
        <ele>17.455008</ele>
        <time>2020-05-27T22:03:11.053Z</time>
      </trkpt>
      <trkpt lat="50.44462" lon="3.46292">
        <ele>17.718768</ele>
        <time>2020-05-27T22:03:29.351Z</time>
      </trkpt>
      <trkpt lat="50.44486" lon="3.46263">
        <ele>17.804811</ele>
        <time>2020-05-27T22:03:34.409Z</time>
      </trkpt>
      <trkpt lat="50.445" lon="3.46247">
        <ele>17.853301</ele>
        <time>2020-05-27T22:03:37.262Z</time>
      </trkpt>
      <trkpt lat="50.44525" lon="3.46213">
        <ele>17.945683</ele>
        <time>2020-05-27T22:03:42.783Z</time>
      </trkpt>
      <trkpt lat="50.44565" lon="3.46156">
        <ele>18.089443</ele>
        <time>2020-05-27T22:03:51.784Z</time>
      </trkpt>
      <trkpt lat="50.44588" lon="3.46122">
        <ele>18.172148</ele>
        <time>2020-05-27T22:03:56.901Z</time>
      </trkpt>
      <trkpt lat="50.44612" lon="3.46086">
        <ele>18.258837</ele>
        <time>2020-05-27T22:04:02.215Z</time>
      </trkpt>
      <trkpt lat="50.4462" lon="3.46072">
        <ele>18.291441</ele>
        <time>2020-05-27T22:04:04.264Z</time>
      </trkpt>
      <trkpt lat="50.44633" lon="3.46054">
        <ele>18.334858</ele>
        <time>2020-05-27T22:04:06.831Z</time>
      </trkpt>
      <trkpt lat="50.44655" lon="3.4602">
        <ele>18.416275</ele>
        <time>2020-05-27T22:04:11.649Z</time>
      </trkpt>
      <trkpt lat="50.44663" lon="3.46005">
        <ele>18.438961</ele>
        <time>2020-05-27T22:04:13.486Z</time>
      </trkpt>
      <trkpt lat="50.44669" lon="3.46018">
        <ele>18.420936</ele>
        <time>2020-05-27T22:04:15.692Z</time>
      </trkpt>
      <trkpt lat="50.44772" lon="3.46208">
        <ele>18.150912</ele>
        <time>2020-05-27T22:04:46.391Z</time>
      </trkpt>
      <trkpt lat="50.44788" lon="3.4623">
        <ele>18.118563</ele>
        <time>2020-05-27T22:04:50.560Z</time>
      </trkpt>
      <trkpt lat="50.44815" lon="3.46246">
        <ele>18.079573</ele>
        <time>2020-05-27T22:04:56.173Z</time>
      </trkpt>
      <trkpt lat="50.44845" lon="3.46291">
        <ele>18.024246</ele>
        <time>2020-05-27T22:05:04.185Z</time>
      </trkpt>
      <trkpt lat="50.44935" lon="3.46476">
        <ele>17.773302</ele>
        <time>2020-05-27T22:05:34.092Z</time>
      </trkpt>
      <trkpt lat="50.44985" lon="3.46563">
        <ele>17.599262</ele>
        <time>2020-05-27T22:05:48.745Z</time>
      </trkpt>
      <trkpt lat="50.45006" lon="3.46604">
        <ele>17.519103</ele>
        <time>2020-05-27T22:05:55.104Z</time>
      </trkpt>
      <trkpt lat="50.45015" lon="3.46592">
        <ele>17.491346</ele>
        <time>2020-05-27T22:05:57.149Z</time>
      </trkpt>
      <trkpt lat="50.45071" lon="3.46477">
        <ele>16.922056</ele>
        <time>2020-05-27T22:06:14.035Z</time>
      </trkpt>
      <trkpt lat="50.45079" lon="3.46463">
        <ele>16.842159</ele>
        <time>2020-05-27T22:06:16.088Z</time>
      </trkpt>
      <trkpt lat="50.45088" lon="3.46456">
        <ele>16.773005</ele>
        <time>2020-05-27T22:06:17.943Z</time>
      </trkpt>
      <trkpt lat="50.45145" lon="3.46428">
        <ele>16.378297</ele>
        <time>2020-05-27T22:06:28.636Z</time>
      </trkpt>
      <trkpt lat="50.45193" lon="3.46405">
        <ele>16.208563</ele>
        <time>2020-05-27T22:06:37.651Z</time>
      </trkpt>
      <trkpt lat="50.45282" lon="3.46345">
        <ele>15.999345</ele>
        <time>2020-05-27T22:06:56.542Z</time>
      </trkpt>
      <trkpt lat="50.45385" lon="3.46251">
        <ele>15.975036</ele>
        <time>2020-05-27T22:07:21.418Z</time>
      </trkpt>
      <trkpt lat="50.45392" lon="3.46237">
        <ele>15.986979</ele>
        <time>2020-05-27T22:07:23.776Z</time>
      </trkpt>
      <trkpt lat="50.45404" lon="3.46173">
        <ele>16.033028</ele>
        <time>2020-05-27T22:07:32.751Z</time>
      </trkpt>
      <trkpt lat="50.45463" lon="3.4607">
        <ele>16.102115</ele>
        <time>2020-05-27T22:07:50.708Z</time>
      </trkpt>
      <trkpt lat="50.45521" lon="3.46062">
        <ele>16.120181</ele>
        <time>2020-05-27T22:08:02.501Z</time>
      </trkpt>
      <trkpt lat="50.45532" lon="3.46059">
        <ele>16.123576</ele>
        <time>2020-05-27T22:08:04.694Z</time>
      </trkpt>
      <trkpt lat="50.45548" lon="3.46152">
        <ele>16.142696</ele>
        <time>2020-05-27T22:08:14.051Z</time>
      </trkpt>
      <trkpt lat="50.45552" lon="3.46171">
        <ele>16.146579</ele>
        <time>2020-05-27T22:08:15.870Z</time>
      </trkpt>
      <trkpt lat="50.45559" lon="3.46206">
        <ele>16.15496</ele>
        <time>2020-05-27T22:08:19.426Z</time>
      </trkpt>
      <trkpt lat="50.45565" lon="3.46225">
        <ele>16.159847</ele>
        <time>2020-05-27T22:08:21.378Z</time>
      </trkpt>
      <trkpt lat="50.4557" lon="3.46242">
        <ele>16.164066</ele>
        <time>2020-05-27T22:08:23.145Z</time>
      </trkpt>
      <trkpt lat="50.45577" lon="3.46259">
        <ele>16.16901</ele>
        <time>2020-05-27T22:08:25.169Z</time>
      </trkpt>
      <trkpt lat="50.45589" lon="3.46281">
        <ele>16.175573</ele>
        <time>2020-05-27T22:08:27.850Z</time>
      </trkpt>
      <trkpt lat="50.45686" lon="3.46522">
        <ele>16.379741</ele>
        <time>2020-05-27T22:08:55.426Z</time>
      </trkpt>
      <trkpt lat="50.45702" lon="3.46581">
        <ele>16.464987</ele>
        <time>2020-05-27T22:09:01.674Z</time>
      </trkpt>
      <trkpt lat="50.45703" lon="3.46776">
        <ele>16.72321</ele>
        <time>2020-05-27T22:09:21.851Z</time>
      </trkpt>
      <trkpt lat="50.45718" lon="3.46906">
        <ele>16.896482</ele>
        <time>2020-05-27T22:09:34.720Z</time>
      </trkpt>
      <trkpt lat="50.45719" lon="3.4695">
        <ele>16.954104</ele>
        <time>2020-05-27T22:09:39.085Z</time>
      </trkpt>
      <trkpt lat="50.45717" lon="3.4702">
        <ele>17.169132</ele>
        <time>2020-05-27T22:09:46.178Z</time>
      </trkpt>
      <trkpt lat="50.45713" lon="3.47115">
        <ele>17.474612</ele>
        <time>2020-05-27T22:09:56.139Z</time>
      </trkpt>
      <trkpt lat="50.45708" lon="3.47233">
        <ele>17.853664</ele>
        <time>2020-05-27T22:10:08.919Z</time>
      </trkpt>
      <trkpt lat="50.45706" lon="3.47309">
        <ele>18.519209</ele>
        <time>2020-05-27T22:10:18.184Z</time>
      </trkpt>
      <trkpt lat="50.4572" lon="3.47409">
        <ele>19.448846</ele>
        <time>2020-05-27T22:10:32.397Z</time>
      </trkpt>
      <trkpt lat="50.45724" lon="3.47442">
        <ele>19.750462</ele>
        <time>2020-05-27T22:10:37.138Z</time>
      </trkpt>
      <trkpt lat="50.45749" lon="3.4764">
        <ele>20.9173</ele>
        <time>2020-05-27T22:11:04.301Z</time>
      </trkpt>
      <trkpt lat="50.45903" lon="3.48854">
        <ele>25.118043</ele>
        <time>2020-05-27T22:13:17.193Z</time>
      </trkpt>
      <trkpt lat="50.45925" lon="3.49016">
        <ele>24.246405</ele>
        <time>2020-05-27T22:13:30.149Z</time>
      </trkpt>
      <trkpt lat="50.46005" lon="3.48903">
        <ele>22.931392</ele>
        <time>2020-05-27T22:13:47.708Z</time>
      </trkpt>
      <trkpt lat="50.46192" lon="3.48632">
        <ele>19.547362</ele>
        <time>2020-05-27T22:14:29.898Z</time>
      </trkpt>
      <trkpt lat="50.46267" lon="3.48523">
        <ele>18.51891</ele>
        <time>2020-05-27T22:14:48.211Z</time>
      </trkpt>
      <trkpt lat="50.46352" lon="3.484">
        <ele>18.220729</ele>
        <time>2020-05-27T22:15:10.450Z</time>
      </trkpt>
      <trkpt lat="50.46455" lon="3.48251">
        <ele>17.892436</ele>
        <time>2020-05-27T22:15:38.290Z</time>
      </trkpt>
      <trkpt lat="50.46507" lon="3.48174">
        <ele>17.739663</ele>
        <time>2020-05-27T22:15:51.943Z</time>
      </trkpt>
      <trkpt lat="50.46551" lon="3.48072">
        <ele>17.51969</ele>
        <time>2020-05-27T22:16:06.993Z</time>
      </trkpt>
      <trkpt lat="50.46627" lon="3.47989">
        <ele>17.219058</ele>
        <time>2020-05-27T22:16:24.596Z</time>
      </trkpt>
      <trkpt lat="50.46703" lon="3.47893">
        <ele>16.970192</ele>
        <time>2020-05-27T22:16:43.442Z</time>
      </trkpt>
      <trkpt lat="50.46729" lon="3.47857">
        <ele>16.900261</ele>
        <time>2020-05-27T22:16:48.351Z</time>
      </trkpt>
      <trkpt lat="50.46784" lon="3.47766">
        <ele>16.739835</ele>
        <time>2020-05-27T22:16:59.728Z</time>
      </trkpt>
      <trkpt lat="50.46852" lon="3.47621">
        <ele>16.587058</ele>
        <time>2020-05-27T22:17:16.180Z</time>
      </trkpt>
      <trkpt lat="50.46892" lon="3.47496">
        <ele>16.477531</ele>
        <time>2020-05-27T22:17:28.887Z</time>
      </trkpt>
      <trkpt lat="50.469" lon="3.47464">
        <ele>16.455364</ele>
        <time>2020-05-27T22:17:32.036Z</time>
      </trkpt>
      <trkpt lat="50.46897" lon="3.47433">
        <ele>16.435705</ele>
        <time>2020-05-27T22:17:34.779Z</time>
      </trkpt>
      <trkpt lat="50.46868" lon="3.47366">
        <ele>16.384016</ele>
        <time>2020-05-27T22:17:42.313Z</time>
      </trkpt>
      <trkpt lat="50.46868" lon="3.47341">
        <ele>16.368449</ele>
        <time>2020-05-27T22:17:44.646Z</time>
      </trkpt>
      <trkpt lat="50.46869" lon="3.47337">
        <ele>16.36565</ele>
        <time>2020-05-27T22:17:44.984Z</time>
      </trkpt>
      <trkpt lat="50.46874" lon="3.47324">
        <ele>16.355583</ele>
        <time>2020-05-27T22:17:46.519Z</time>
      </trkpt>
      <trkpt lat="50.46912" lon="3.47288">
        <ele>16.311861</ele>
        <time>2020-05-27T22:17:53.099Z</time>
      </trkpt>
      <trkpt lat="50.46932" lon="3.47258">
        <ele>16.310349</ele>
        <time>2020-05-27T22:17:57.219Z</time>
      </trkpt>
      <trkpt lat="50.46955" lon="3.4722">
        <ele>16.308515</ele>
        <time>2020-05-27T22:18:02.274Z</time>
      </trkpt>
      <trkpt lat="50.46967" lon="3.47199">
        <ele>16.307543</ele>
        <time>2020-05-27T22:18:05.126Z</time>
      </trkpt>
      <trkpt lat="50.47005" lon="3.47114">
        <ele>16.30398</ele>
        <time>2020-05-27T22:18:14.776Z</time>
      </trkpt>
      <trkpt lat="50.47005" lon="3.47114">
        <ele>16.30398</ele>
        <time>2020-05-27T22:18:14.776Z</time>
      </trkpt>
      <trkpt lat="50.47043" lon="3.47002">
        <ele>16.206211</ele>
        <time>2020-05-27T22:18:26.589Z</time>
      </trkpt>
      <trkpt lat="50.47063" lon="3.46934">
        <ele>16.107145</ele>
        <time>2020-05-27T22:18:33.341Z</time>
      </trkpt>
      <trkpt lat="50.47076" lon="3.46911">
        <ele>16.067664</ele>
        <time>2020-05-27T22:18:36.054Z</time>
      </trkpt>
      <trkpt lat="50.47022" lon="3.46798">
        <ele>15.896338</ele>
        <time>2020-05-27T22:18:48.259Z</time>
      </trkpt>
      <trkpt lat="50.46992" lon="3.4673">
        <ele>15.822002</ele>
        <time>2020-05-27T22:18:55.542Z</time>
      </trkpt>
      <trkpt lat="50.4699" lon="3.46702">
        <ele>15.796186</ele>
        <time>2020-05-27T22:18:58.321Z</time>
      </trkpt>
      <trkpt lat="50.46993" lon="3.46686">
        <ele>15.781434</ele>
        <time>2020-05-27T22:18:59.712Z</time>
      </trkpt>
      <trkpt lat="50.46999" lon="3.46654">
        <ele>15.75091</ele>
        <time>2020-05-27T22:19:03.033Z</time>
      </trkpt>
      <trkpt lat="50.47001" lon="3.46644">
        <ele>15.741454</ele>
        <time>2020-05-27T22:19:03.996Z</time>
      </trkpt>
      <trkpt lat="50.47002" lon="3.46641">
        <ele>15.738305</ele>
        <time>2020-05-27T22:19:04.288Z</time>
      </trkpt>
      <trkpt lat="50.47006" lon="3.4663">
        <ele>15.726952</ele>
        <time>2020-05-27T22:19:05.383Z</time>
      </trkpt>
      <trkpt lat="50.47026" lon="3.46579">
        <ele>15.675031</ele>
        <time>2020-05-27T22:19:11.080Z</time>
      </trkpt>
      <trkpt lat="50.4703" lon="3.46565">
        <ele>15.688618</ele>
        <time>2020-05-27T22:19:12.854Z</time>
      </trkpt>
      <trkpt lat="50.47039" lon="3.46496">
        <ele>15.750247</ele>
        <time>2020-05-27T22:19:19.262Z</time>
      </trkpt>
      <trkpt lat="50.47035" lon="3.46455">
        <ele>15.786517</ele>
        <time>2020-05-27T22:19:23.249Z</time>
      </trkpt>
      <trkpt lat="50.47023" lon="3.46407">
        <ele>15.831399</ele>
        <time>2020-05-27T22:19:28.109Z</time>
      </trkpt>
      <trkpt lat="50.47019" lon="3.46397">
        <ele>15.842541</ele>
        <time>2020-05-27T22:19:29.690Z</time>
      </trkpt>
      <trkpt lat="50.47015" lon="3.46388">
        <ele>15.85198</ele>
        <time>2020-05-27T22:19:30.511Z</time>
      </trkpt>
      <trkpt lat="50.46967" lon="3.46315">
        <ele>16.00306</ele>
        <time>2020-05-27T22:19:41.642Z</time>
      </trkpt>
      <trkpt lat="50.46965" lon="3.46304">
        <ele>16.040837</ele>
        <time>2020-05-27T22:19:42.547Z</time>
      </trkpt>
      <trkpt lat="50.46964" lon="3.46297">
        <ele>16.063828</ele>
        <time>2020-05-27T22:19:43.476Z</time>
      </trkpt>
      <trkpt lat="50.46976" lon="3.4622">
        <ele>16.320931</ele>
        <time>2020-05-27T22:19:51.675Z</time>
      </trkpt>
      <trkpt lat="50.46974" lon="3.46142">
        <ele>16.571031</ele>
        <time>2020-05-27T22:20:00.076Z</time>
      </trkpt>
      <trkpt lat="50.46985" lon="3.46041">
        <ele>16.950386</ele>
        <time>2020-05-27T22:20:11.659Z</time>
      </trkpt>
      <trkpt lat="50.46983" lon="3.45999">
        <ele>17.179689</ele>
        <time>2020-05-27T22:20:16.526Z</time>
      </trkpt>
      <trkpt lat="50.46982" lon="3.45984">
        <ele>17.258226</ele>
        <time>2020-05-27T22:20:18.270Z</time>
      </trkpt>
      <trkpt lat="50.46982" lon="3.45983">
        <ele>17.263119</ele>
        <time>2020-05-27T22:20:18.566Z</time>
      </trkpt>
      <trkpt lat="50.46949" lon="3.45908">
        <ele>17.758647</ele>
        <time>2020-05-27T22:20:29.101Z</time>
      </trkpt>
      <trkpt lat="50.46912" lon="3.45839">
        <ele>18.249604</ele>
        <time>2020-05-27T22:20:39.953Z</time>
      </trkpt>
      <trkpt lat="50.46864" lon="3.45759">
        <ele>18.453548</ele>
        <time>2020-05-27T22:20:52.861Z</time>
      </trkpt>
      <trkpt lat="50.46786" lon="3.45654">
        <ele>18.604515</ele>
        <time>2020-05-27T22:21:08.463Z</time>
      </trkpt>
      <trkpt lat="50.46771" lon="3.45621">
        <ele>18.578345</ele>
        <time>2020-05-27T22:21:11.607Z</time>
      </trkpt>
      <trkpt lat="50.46766" lon="3.45612">
        <ele>18.468326</ele>
        <time>2020-05-27T22:21:12.811Z</time>
      </trkpt>
      <trkpt lat="50.46759" lon="3.45596">
        <ele>18.294247</ele>
        <time>2020-05-27T22:21:14.240Z</time>
      </trkpt>
      <trkpt lat="50.46756" lon="3.45588">
        <ele>18.208772</ele>
        <time>2020-05-27T22:21:14.936Z</time>
      </trkpt>
      <trkpt lat="50.46752" lon="3.45577">
        <ele>18.092286</ele>
        <time>2020-05-27T22:21:15.946Z</time>
      </trkpt>
      <trkpt lat="50.46746" lon="3.45554">
        <ele>17.879824</ele>
        <time>2020-05-27T22:21:17.799Z</time>
      </trkpt>
      <trkpt lat="50.46742" lon="3.45535">
        <ele>17.700707</ele>
        <time>2020-05-27T22:21:19.202Z</time>
      </trkpt>
      <trkpt lat="50.46731" lon="3.45472">
        <ele>17.10578</ele>
        <time>2020-05-27T22:21:24.117Z</time>
      </trkpt>
      <trkpt lat="50.46726" lon="3.45457">
        <ele>16.955247</ele>
        <time>2020-05-27T22:21:25.479Z</time>
      </trkpt>
      <trkpt lat="50.46722" lon="3.45447">
        <ele>16.856051</ele>
        <time>2020-05-27T22:21:26.225Z</time>
      </trkpt>
      <trkpt lat="50.46717" lon="3.45443">
        <ele>16.778675</ele>
        <time>2020-05-27T22:21:26.797Z</time>
      </trkpt>
      <trkpt lat="50.46689" lon="3.45418">
        <ele>16.321108</ele>
        <time>2020-05-27T22:21:30.427Z</time>
      </trkpt>
      <trkpt lat="50.4668" lon="3.45405">
        <ele>16.147049</ele>
        <time>2020-05-27T22:21:31.736Z</time>
      </trkpt>
      <trkpt lat="50.46673" lon="3.45396">
        <ele>16.053092</ele>
        <time>2020-05-27T22:21:32.705Z</time>
      </trkpt>
      <trkpt lat="50.46666" lon="3.45387">
        <ele>15.969767</ele>
        <time>2020-05-27T22:21:33.746Z</time>
      </trkpt>
      <trkpt lat="50.46665" lon="3.45387">
        <ele>15.962999</ele>
        <time>2020-05-27T22:21:33.810Z</time>
      </trkpt>
      <trkpt lat="50.46617" lon="3.45316">
        <ele>15.369102</ele>
        <time>2020-05-27T22:21:41.333Z</time>
      </trkpt>
      <trkpt lat="50.46611" lon="3.45296">
        <ele>15.23995</ele>
        <time>2020-05-27T22:21:42.975Z</time>
      </trkpt>
      <trkpt lat="50.46608" lon="3.45278">
        <ele>15.132458</ele>
        <time>2020-05-27T22:21:44.574Z</time>
      </trkpt>
      <trkpt lat="50.46607" lon="3.45264">
        <ele>15.052394</ele>
        <time>2020-05-27T22:21:45.815Z</time>
      </trkpt>
      <trkpt lat="50.46608" lon="3.4526">
        <ele>15.026745</ele>
        <time>2020-05-27T22:21:46.211Z</time>
      </trkpt>
      <trkpt lat="50.46608" lon="3.45256">
        <ele>15.000663</ele>
        <time>2020-05-27T22:21:46.599Z</time>
      </trkpt>
      <trkpt lat="50.46614" lon="3.45243">
        <ele>14.911028</ele>
        <time>2020-05-27T22:21:47.832Z</time>
      </trkpt>
      <trkpt lat="50.46624" lon="3.45222">
        <ele>14.755528</ele>
        <time>2020-05-27T22:21:50.286Z</time>
      </trkpt>
      <trkpt lat="50.46637" lon="3.45205">
        <ele>14.605216</ele>
        <time>2020-05-27T22:21:52.557Z</time>
      </trkpt>
      <trkpt lat="50.46649" lon="3.45188">
        <ele>14.480982</ele>
        <time>2020-05-27T22:21:55.051Z</time>
      </trkpt>
      <trkpt lat="50.46746" lon="3.45059">
        <ele>15.31368</ele>
        <time>2020-05-27T22:22:17.610Z</time>
      </trkpt>
      <trkpt lat="50.46759" lon="3.45033">
        <ele>15.450713</ele>
        <time>2020-05-27T22:22:21.572Z</time>
      </trkpt>
      <trkpt lat="50.46768" lon="3.45001">
        <ele>15.597018</ele>
        <time>2020-05-27T22:22:25.901Z</time>
      </trkpt>
      <trkpt lat="50.46777" lon="3.44958">
        <ele>15.757499</ele>
        <time>2020-05-27T22:22:31.150Z</time>
      </trkpt>
      <trkpt lat="50.46781" lon="3.44932">
        <ele>15.84406</ele>
        <time>2020-05-27T22:22:34.117Z</time>
      </trkpt>
      <trkpt lat="50.46809" lon="3.4475">
        <ele>16.46595</ele>
        <time>2020-05-27T22:22:54.032Z</time>
      </trkpt>
      <trkpt lat="50.46828" lon="3.44616">
        <ele>16.861902</ele>
        <time>2020-05-27T22:23:07.752Z</time>
      </trkpt>
      <trkpt lat="50.46829" lon="3.44533">
        <ele>17.087147</ele>
        <time>2020-05-27T22:23:16.516Z</time>
      </trkpt>
      <trkpt lat="50.46832" lon="3.44489">
        <ele>17.208473</ele>
        <time>2020-05-27T22:23:21.406Z</time>
      </trkpt>
      <trkpt lat="50.46842" lon="3.44451">
        <ele>17.321243</ele>
        <time>2020-05-27T22:23:26.003Z</time>
      </trkpt>
      <trkpt lat="50.46863" lon="3.4439">
        <ele>17.517985</ele>
        <time>2020-05-27T22:23:33.505Z</time>
      </trkpt>
      <trkpt lat="50.46871" lon="3.44361">
        <ele>17.61115</ele>
        <time>2020-05-27T22:23:37.088Z</time>
      </trkpt>
      <trkpt lat="50.4689" lon="3.443">
        <ele>17.807068</ele>
        <time>2020-05-27T22:23:44.385Z</time>
      </trkpt>
      <trkpt lat="50.46893" lon="3.4429">
        <ele>17.841233</ele>
        <time>2020-05-27T22:23:45.642Z</time>
      </trkpt>
      <trkpt lat="50.46895" lon="3.44286">
        <ele>17.856243</ele>
        <time>2020-05-27T22:23:46.211Z</time>
      </trkpt>
      <trkpt lat="50.46904" lon="3.44268">
        <ele>17.920811</ele>
        <time>2020-05-27T22:23:48.667Z</time>
      </trkpt>
      <trkpt lat="50.4697" lon="3.44166">
        <ele>18.117752</ele>
        <time>2020-05-27T22:24:03.588Z</time>
      </trkpt>
      <trkpt lat="50.47003" lon="3.44054">
        <ele>17.990654</ele>
        <time>2020-05-27T22:24:14.714Z</time>
      </trkpt>
      <trkpt lat="50.47021" lon="3.44011">
        <ele>17.936957</ele>
        <time>2020-05-27T22:24:19.196Z</time>
      </trkpt>
      <trkpt lat="50.47043" lon="3.43975">
        <ele>17.884369</ele>
        <time>2020-05-27T22:24:23.428Z</time>
      </trkpt>
      <trkpt lat="50.47089" lon="3.43934">
        <ele>17.656272</ele>
        <time>2020-05-27T22:24:30.362Z</time>
      </trkpt>
      <trkpt lat="50.47133" lon="3.43912">
        <ele>17.458469</ele>
        <time>2020-05-27T22:24:36.429Z</time>
      </trkpt>
      <trkpt lat="50.4716" lon="3.43897">
        <ele>17.3334</ele>
        <time>2020-05-27T22:24:40.256Z</time>
      </trkpt>
      <trkpt lat="50.47181" lon="3.43875">
        <ele>17.22205</ele>
        <time>2020-05-27T22:24:43.707Z</time>
      </trkpt>
      <trkpt lat="50.47213" lon="3.43826">
        <ele>17.072462</ele>
        <time>2020-05-27T22:24:49.827Z</time>
      </trkpt>
      <trkpt lat="50.47227" lon="3.43795">
        <ele>17.028939</ele>
        <time>2020-05-27T22:24:53.184Z</time>
      </trkpt>
      <trkpt lat="50.47243" lon="3.43737">
        <ele>16.955397</ele>
        <time>2020-05-27T22:24:58.758Z</time>
      </trkpt>
      <trkpt lat="50.47256" lon="3.43705">
        <ele>16.91052</ele>
        <time>2020-05-27T22:25:02.181Z</time>
      </trkpt>
      <trkpt lat="50.47305" lon="3.43634">
        <ele>16.789381</ele>
        <time>2020-05-27T22:25:11.722Z</time>
      </trkpt>
      <trkpt lat="50.47315" lon="3.43617">
        <ele>16.804558</ele>
        <time>2020-05-27T22:25:13.939Z</time>
      </trkpt>
      <trkpt lat="50.47333" lon="3.43582">
        <ele>16.911133</ele>
        <time>2020-05-27T22:25:18.500Z</time>
      </trkpt>
      <trkpt lat="50.47343" lon="3.43555">
        <ele>16.985745</ele>
        <time>2020-05-27T22:25:21.698Z</time>
      </trkpt>
      <trkpt lat="50.47355" lon="3.43514">
        <ele>17.09181</ele>
        <time>2020-05-27T22:25:26.445Z</time>
      </trkpt>
      <trkpt lat="50.47363" lon="3.4346">
        <ele>17.221337</ele>
        <time>2020-05-27T22:25:32.257Z</time>
      </trkpt>
      <trkpt lat="50.4737" lon="3.43392">
        <ele>17.383318</ele>
        <time>2020-05-27T22:25:39.649Z</time>
      </trkpt>
      <trkpt lat="50.47371" lon="3.43382">
        <ele>17.407629</ele>
        <time>2020-05-27T22:25:40.933Z</time>
      </trkpt>
      <trkpt lat="50.47378" lon="3.43333">
        <ele>17.574579</ele>
        <time>2020-05-27T22:25:46.413Z</time>
      </trkpt>
      <trkpt lat="50.47388" lon="3.43289">
        <ele>17.743913</ele>
        <time>2020-05-27T22:25:51.472Z</time>
      </trkpt>
      <trkpt lat="50.47394" lon="3.43256">
        <ele>17.868991</ele>
        <time>2020-05-27T22:25:55.522Z</time>
      </trkpt>
      <trkpt lat="50.47396" lon="3.43242">
        <ele>17.919322</ele>
        <time>2020-05-27T22:25:57.016Z</time>
      </trkpt>
      <trkpt lat="50.47398" lon="3.43194">
        <ele>18.098068</ele>
        <time>2020-05-27T22:26:02.673Z</time>
      </trkpt>
      <trkpt lat="50.47403" lon="3.43012">
        <ele>18.602694</ele>
        <time>2020-05-27T22:26:21.874Z</time>
      </trkpt>
      <trkpt lat="50.47406" lon="3.42913">
        <ele>18.762381</ele>
        <time>2020-05-27T22:26:31.953Z</time>
      </trkpt>
      <trkpt lat="50.47407" lon="3.4291">
        <ele>18.768107</ele>
        <time>2020-05-27T22:26:32.257Z</time>
      </trkpt>
      <trkpt lat="50.4741" lon="3.42874">
        <ele>18.826842</ele>
        <time>2020-05-27T22:26:36.018Z</time>
      </trkpt>
      <trkpt lat="50.47415" lon="3.42835">
        <ele>18.89139</ele>
        <time>2020-05-27T22:26:39.885Z</time>
      </trkpt>
      <trkpt lat="50.47422" lon="3.42797">
        <ele>18.907345</ele>
        <time>2020-05-27T22:26:43.679Z</time>
      </trkpt>
      <trkpt lat="50.47448" lon="3.42668">
        <ele>18.669923</ele>
        <time>2020-05-27T22:26:55.658Z</time>
      </trkpt>
      <trkpt lat="50.47452" lon="3.42652">
        <ele>18.638831</ele>
        <time>2020-05-27T22:26:57.372Z</time>
      </trkpt>
      <trkpt lat="50.47463" lon="3.42656">
        <ele>18.605135</ele>
        <time>2020-05-27T22:26:58.947Z</time>
      </trkpt>
      <trkpt lat="50.47478" lon="3.42659">
        <ele>18.565368</ele>
        <time>2020-05-27T22:27:00.897Z</time>
      </trkpt>
      <trkpt lat="50.47487" lon="3.42661">
        <ele>18.539037</ele>
        <time>2020-05-27T22:27:02.312Z</time>
      </trkpt>
      <trkpt lat="50.47501" lon="3.42662">
        <ele>18.501658</ele>
        <time>2020-05-27T22:27:04.036Z</time>
      </trkpt>
      <trkpt lat="50.47522" lon="3.4266">
        <ele>18.442408</ele>
        <time>2020-05-27T22:27:06.953Z</time>
      </trkpt>
      <trkpt lat="50.4753" lon="3.42658">
        <ele>18.406383</ele>
        <time>2020-05-27T22:27:07.899Z</time>
      </trkpt>
      <trkpt lat="50.47557" lon="3.42652">
        <ele>18.250788</ele>
        <time>2020-05-27T22:27:11.474Z</time>
      </trkpt>
      <trkpt lat="50.47712" lon="3.42598">
        <ele>17.409657</ele>
        <time>2020-05-27T22:27:31.975Z</time>
      </trkpt>
      <trkpt lat="50.4785" lon="3.42612">
        <ele>17.412885</ele>
        <time>2020-05-27T22:27:52.660Z</time>
      </trkpt>
      <trkpt lat="50.47922" lon="3.42603">
        <ele>17.584704</ele>
        <time>2020-05-27T22:28:04.189Z</time>
      </trkpt>
      <trkpt lat="50.47945" lon="3.42594">
        <ele>17.68295</ele>
        <time>2020-05-27T22:28:08.171Z</time>
      </trkpt>
      <trkpt lat="50.48025" lon="3.42556">
        <ele>18.022798</ele>
        <time>2020-05-27T22:28:22.028Z</time>
      </trkpt>
      <trkpt lat="50.48123" lon="3.42506">
        <ele>18.329504</ele>
        <time>2020-05-27T22:28:39.579Z</time>
      </trkpt>
      <trkpt lat="50.48147" lon="3.42501">
        <ele>18.388516</ele>
        <time>2020-05-27T22:28:43.228Z</time>
      </trkpt>
      <trkpt lat="50.48167" lon="3.42499">
        <ele>18.439958</ele>
        <time>2020-05-27T22:28:46.481Z</time>
      </trkpt>
      <trkpt lat="50.4823" lon="3.42507">
        <ele>18.596389</ele>
        <time>2020-05-27T22:28:55.811Z</time>
      </trkpt>
      <trkpt lat="50.48243" lon="3.4251">
        <ele>18.58653</ele>
        <time>2020-05-27T22:28:57.855Z</time>
      </trkpt>
      <trkpt lat="50.48265" lon="3.42517">
        <ele>18.569182</ele>
        <time>2020-05-27T22:29:00.998Z</time>
      </trkpt>
      <trkpt lat="50.48298" lon="3.42533">
        <ele>18.541899</ele>
        <time>2020-05-27T22:29:06.141Z</time>
      </trkpt>
      <trkpt lat="50.48331" lon="3.42556">
        <ele>18.513654</ele>
        <time>2020-05-27T22:29:11.346Z</time>
      </trkpt>
      <trkpt lat="50.48364" lon="3.42603">
        <ele>18.479312</ele>
        <time>2020-05-27T22:29:17.779Z</time>
      </trkpt>
      <trkpt lat="50.48379" lon="3.42655">
        <ele>18.461295</ele>
        <time>2020-05-27T22:29:22.929Z</time>
      </trkpt>
      <trkpt lat="50.48391" lon="3.42733">
        <ele>18.490696</ele>
        <time>2020-05-27T22:29:30.558Z</time>
      </trkpt>
      <trkpt lat="50.48397" lon="3.4277">
        <ele>18.504832</ele>
        <time>2020-05-27T22:29:34.457Z</time>
      </trkpt>
      <trkpt lat="50.48404" lon="3.42822">
        <ele>18.524145</ele>
        <time>2020-05-27T22:29:39.542Z</time>
      </trkpt>
      <trkpt lat="50.48423" lon="3.42957">
        <ele>18.579835</ele>
        <time>2020-05-27T22:29:52.792Z</time>
      </trkpt>
      <trkpt lat="50.48426" lon="3.42971">
        <ele>18.587086</ele>
        <time>2020-05-27T22:29:54.268Z</time>
      </trkpt>
      <trkpt lat="50.48432" lon="3.43001">
        <ele>18.60243</ele>
        <time>2020-05-27T22:29:57.171Z</time>
      </trkpt>
      <trkpt lat="50.48438" lon="3.43022">
        <ele>18.613994</ele>
        <time>2020-05-27T22:29:59.351Z</time>
      </trkpt>
      <trkpt lat="50.48468" lon="3.43113">
        <ele>18.664016</ele>
        <time>2020-05-27T22:30:09.042Z</time>
      </trkpt>
      <trkpt lat="50.48503" lon="3.4319">
        <ele>18.763904</ele>
        <time>2020-05-27T22:30:18.475Z</time>
      </trkpt>
      <trkpt lat="50.48503" lon="3.4319">
        <ele>18.764191</ele>
        <time>2020-05-27T22:30:18.479Z</time>
      </trkpt>
      <trkpt lat="50.48515" lon="3.43211">
        <ele>18.844662</ele>
        <time>2020-05-27T22:30:21.138Z</time>
      </trkpt>
      <trkpt lat="50.48516" lon="3.43213">
        <ele>18.855134</ele>
        <time>2020-05-27T22:30:21.707Z</time>
      </trkpt>
      <trkpt lat="50.48566" lon="3.43274">
        <ele>19.139617</ele>
        <time>2020-05-27T22:30:32.291Z</time>
      </trkpt>
      <trkpt lat="50.48614" lon="3.43307">
        <ele>19.375434</ele>
        <time>2020-05-27T22:30:41.295Z</time>
      </trkpt>
      <trkpt lat="50.48697" lon="3.4335">
        <ele>19.788544</ele>
        <time>2020-05-27T22:30:56.166Z</time>
      </trkpt>
      <trkpt lat="50.48714" lon="3.43358">
        <ele>19.875904</ele>
        <time>2020-05-27T22:30:59.170Z</time>
      </trkpt>
      <trkpt lat="50.48812" lon="3.43386">
        <ele>20.361947</ele>
        <time>2020-05-27T22:31:15.745Z</time>
      </trkpt>
      <trkpt lat="50.48835" lon="3.43392">
        <ele>20.48044</ele>
        <time>2020-05-27T22:31:19.553Z</time>
      </trkpt>
      <trkpt lat="50.48831" lon="3.43417">
        <ele>20.564978</ele>
        <time>2020-05-27T22:31:22.260Z</time>
      </trkpt>
      <trkpt lat="50.48777" lon="3.43508">
        <ele>20.957187</ele>
        <time>2020-05-27T22:31:35.442Z</time>
      </trkpt>
      <trkpt lat="50.48772" lon="3.4353">
        <ele>21.029473</ele>
        <time>2020-05-27T22:31:37.964Z</time>
      </trkpt>
      <trkpt lat="50.48774" lon="3.4355">
        <ele>21.094617</ele>
        <time>2020-05-27T22:31:40.375Z</time>
      </trkpt>
      <trkpt lat="50.48786" lon="3.43584">
        <ele>21.217734</ele>
        <time>2020-05-27T22:31:44.601Z</time>
      </trkpt>
      <trkpt lat="50.48793" lon="3.43602">
        <ele>21.284744</ele>
        <time>2020-05-27T22:31:47.034Z</time>
      </trkpt>
      <trkpt lat="50.488" lon="3.4362">
        <ele>21.32999</ele>
        <time>2020-05-27T22:31:49.224Z</time>
      </trkpt>
      <trkpt lat="50.48851" lon="3.4374">
        <ele>21.639964</ele>
        <time>2020-05-27T22:32:04.648Z</time>
      </trkpt>
      <trkpt lat="50.48863" lon="3.43769">
        <ele>21.714279</ele>
        <time>2020-05-27T22:32:08.094Z</time>
      </trkpt>
      <trkpt lat="50.48882" lon="3.43799">
        <ele>21.805103</ele>
        <time>2020-05-27T22:32:12.419Z</time>
      </trkpt>
      <trkpt lat="50.48907" lon="3.43837">
        <ele>21.837216</ele>
        <time>2020-05-27T22:32:17.761Z</time>
      </trkpt>
      <trkpt lat="50.48918" lon="3.43854">
        <ele>21.734039</ele>
        <time>2020-05-27T22:32:20.088Z</time>
      </trkpt>
      <trkpt lat="50.48944" lon="3.43891">
        <ele>21.51427</ele>
        <time>2020-05-27T22:32:24.706Z</time>
      </trkpt>
      <trkpt lat="50.48953" lon="3.43902">
        <ele>21.43779</ele>
        <time>2020-05-27T22:32:26.276Z</time>
      </trkpt>
      <trkpt lat="50.48981" lon="3.43937">
        <ele>21.207593</ele>
        <time>2020-05-27T22:32:30.799Z</time>
      </trkpt>
      <trkpt lat="50.48998" lon="3.43966">
        <ele>21.048834</ele>
        <time>2020-05-27T22:32:33.896Z</time>
      </trkpt>
      <trkpt lat="50.4902" lon="3.44022">
        <ele>20.780869</ele>
        <time>2020-05-27T22:32:39.009Z</time>
      </trkpt>
      <trkpt lat="50.49043" lon="3.44079">
        <ele>20.396774</ele>
        <time>2020-05-27T22:32:44.180Z</time>
      </trkpt>
      <trkpt lat="50.49087" lon="3.44148">
        <ele>19.808059</ele>
        <time>2020-05-27T22:32:51.735Z</time>
      </trkpt>
      <trkpt lat="50.49109" lon="3.44183">
        <ele>19.518786</ele>
        <time>2020-05-27T22:32:55.486Z</time>
      </trkpt>
      <trkpt lat="50.49138" lon="3.44236">
        <ele>19.096485</ele>
        <time>2020-05-27T22:33:01.152Z</time>
      </trkpt>
      <trkpt lat="50.49167" lon="3.44324">
        <ele>18.875439</ele>
        <time>2020-05-27T22:33:09.577Z</time>
      </trkpt>
      <trkpt lat="50.49219" lon="3.44434">
        <ele>18.61335</ele>
        <time>2020-05-27T22:33:21.936Z</time>
      </trkpt>
      <trkpt lat="50.49227" lon="3.44464">
        <ele>18.549569</ele>
        <time>2020-05-27T22:33:25.017Z</time>
      </trkpt>
      <trkpt lat="50.49237" lon="3.44565">
        <ele>18.398657</ele>
        <time>2020-05-27T22:33:34.441Z</time>
      </trkpt>
      <trkpt lat="50.49254" lon="3.44618">
        <ele>18.317296</ele>
        <time>2020-05-27T22:33:39.873Z</time>
      </trkpt>
      <trkpt lat="50.49286" lon="3.44688">
        <ele>18.200141</ele>
        <time>2020-05-27T22:33:47.455Z</time>
      </trkpt>
      <trkpt lat="50.49301" lon="3.44709">
        <ele>18.156746</ele>
        <time>2020-05-27T22:33:50.238Z</time>
      </trkpt>
      <trkpt lat="50.49336" lon="3.44729">
        <ele>18.108296</ele>
        <time>2020-05-27T22:33:55.269Z</time>
      </trkpt>
      <trkpt lat="50.4934" lon="3.44731">
        <ele>18.105708</ele>
        <time>2020-05-27T22:33:55.764Z</time>
      </trkpt>
      <trkpt lat="50.49353" lon="3.4475">
        <ele>18.094261</ele>
        <time>2020-05-27T22:33:58.126Z</time>
      </trkpt>
      <trkpt lat="50.49359" lon="3.44758">
        <ele>18.088827</ele>
        <time>2020-05-27T22:33:59.312Z</time>
      </trkpt>
      <trkpt lat="50.49366" lon="3.44748">
        <ele>18.083121</ele>
        <time>2020-05-27T22:34:00.516Z</time>
      </trkpt>
      <trkpt lat="50.49368" lon="3.44744">
        <ele>18.080979</ele>
        <time>2020-05-27T22:34:00.979Z</time>
      </trkpt>
      <trkpt lat="50.4942" lon="3.44663">
        <ele>18.033178</ele>
        <time>2020-05-27T22:34:12.017Z</time>
      </trkpt>
      <trkpt lat="50.49426" lon="3.44654">
        <ele>18.027784</ele>
        <time>2020-05-27T22:34:13.127Z</time>
      </trkpt>
      <trkpt lat="50.49477" lon="3.44573">
        <ele>18.031698</ele>
        <time>2020-05-27T22:34:24.863Z</time>
      </trkpt>
      <trkpt lat="50.49491" lon="3.44561">
        <ele>18.042569</ele>
        <time>2020-05-27T22:34:27.767Z</time>
      </trkpt>
      <trkpt lat="50.49544" lon="3.44521">
        <ele>18.082577</ele>
        <time>2020-05-27T22:34:36.853Z</time>
      </trkpt>
      <trkpt lat="50.49562" lon="3.44503">
        <ele>18.097223</ele>
        <time>2020-05-27T22:34:40.165Z</time>
      </trkpt>
      <trkpt lat="50.4959" lon="3.44475">
        <ele>18.119571</ele>
        <time>2020-05-27T22:34:44.832Z</time>
      </trkpt>
      <trkpt lat="50.49648" lon="3.44404">
        <ele>17.612669</ele>
        <time>2020-05-27T22:34:54.563Z</time>
      </trkpt>
      <trkpt lat="50.49663" lon="3.44393">
        <ele>17.475008</ele>
        <time>2020-05-27T22:34:56.595Z</time>
      </trkpt>
      <trkpt lat="50.49669" lon="3.44396">
        <ele>17.424545</ele>
        <time>2020-05-27T22:34:57.360Z</time>
      </trkpt>
      <trkpt lat="50.49672" lon="3.44401">
        <ele>17.386533</ele>
        <time>2020-05-27T22:34:57.929Z</time>
      </trkpt>
      <trkpt lat="50.49674" lon="3.44405">
        <ele>17.359563</ele>
        <time>2020-05-27T22:34:58.259Z</time>
      </trkpt>
      <trkpt lat="50.49687" lon="3.44433">
        <ele>17.173891</ele>
        <time>2020-05-27T22:35:01.019Z</time>
      </trkpt>
      <trkpt lat="50.49735" lon="3.44569">
        <ele>16.413109</ele>
        <time>2020-05-27T22:35:12.809Z</time>
      </trkpt>
      <trkpt lat="50.49754" lon="3.44626">
        <ele>16.16067</ele>
        <time>2020-05-27T22:35:17.866Z</time>
      </trkpt>
      <trkpt lat="50.49776" lon="3.4469">
        <ele>15.876042</ele>
        <time>2020-05-27T22:35:24.031Z</time>
      </trkpt>
      <trkpt lat="50.49798" lon="3.44759">
        <ele>15.572493</ele>
        <time>2020-05-27T22:35:30.804Z</time>
      </trkpt>
      <trkpt lat="50.49799" lon="3.44762">
        <ele>15.559914</ele>
        <time>2020-05-27T22:35:31.194Z</time>
      </trkpt>
      <trkpt lat="50.49844" lon="3.44889">
        <ele>15.98514</ele>
        <time>2020-05-27T22:35:45.643Z</time>
      </trkpt>
      <trkpt lat="50.49851" lon="3.44909">
        <ele>16.071784</ele>
        <time>2020-05-27T22:35:48.388Z</time>
      </trkpt>
      <trkpt lat="50.49853" lon="3.44914">
        <ele>16.092842</ele>
        <time>2020-05-27T22:35:49.015Z</time>
      </trkpt>
      <trkpt lat="50.49864" lon="3.44939">
        <ele>16.204006</ele>
        <time>2020-05-27T22:35:52.551Z</time>
      </trkpt>
      <trkpt lat="50.49867" lon="3.44946">
        <ele>16.234587</ele>
        <time>2020-05-27T22:35:53.576Z</time>
      </trkpt>
      <trkpt lat="50.49874" lon="3.44964">
        <ele>16.31242</ele>
        <time>2020-05-27T22:35:56.256Z</time>
      </trkpt>
      <trkpt lat="50.49935" lon="3.45106">
        <ele>16.906765</ele>
        <time>2020-05-27T22:36:16.988Z</time>
      </trkpt>
      <trkpt lat="50.49943" lon="3.45125">
        <ele>16.985968</ele>
        <time>2020-05-27T22:36:19.532Z</time>
      </trkpt>
      <trkpt lat="50.49958" lon="3.45159">
        <ele>17.124191</ele>
        <time>2020-05-27T22:36:23.652Z</time>
      </trkpt>
      <trkpt lat="50.49974" lon="3.45177">
        <ele>17.230397</ele>
        <time>2020-05-27T22:36:26.802Z</time>
      </trkpt>
      <trkpt lat="50.49999" lon="3.45188">
        <ele>17.363294</ele>
        <time>2020-05-27T22:36:30.438Z</time>
      </trkpt>
      <trkpt lat="50.50005" lon="3.45189">
        <ele>17.397043</ele>
        <time>2020-05-27T22:36:31.473Z</time>
      </trkpt>
      <trkpt lat="50.50044" lon="3.45199">
        <ele>17.471176</ele>
        <time>2020-05-27T22:36:37.631Z</time>
      </trkpt>
      <trkpt lat="50.50051" lon="3.45202">
        <ele>17.463553</ele>
        <time>2020-05-27T22:36:38.687Z</time>
      </trkpt>
      <trkpt lat="50.50052" lon="3.45203">
        <ele>17.461749</ele>
        <time>2020-05-27T22:36:38.942Z</time>
      </trkpt>
      <trkpt lat="50.50084" lon="3.45223">
        <ele>17.42421</ele>
        <time>2020-05-27T22:36:44.219Z</time>
      </trkpt>
      <trkpt lat="50.50092" lon="3.45227">
        <ele>17.415014</ele>
        <time>2020-05-27T22:36:45.432Z</time>
      </trkpt>
      <trkpt lat="50.50129" lon="3.45252">
        <ele>17.371324</ele>
        <time>2020-05-27T22:36:50.943Z</time>
      </trkpt>
      <trkpt lat="50.50141" lon="3.4526">
        <ele>17.357272</ele>
        <time>2020-05-27T22:36:52.809Z</time>
      </trkpt>
      <trkpt lat="50.50195" lon="3.45295">
        <ele>17.317498</ele>
        <time>2020-05-27T22:37:00.594Z</time>
      </trkpt>
      <trkpt lat="50.50229" lon="3.45322">
        <ele>17.483649</ele>
        <time>2020-05-27T22:37:06.098Z</time>
      </trkpt>
      <trkpt lat="50.5031" lon="3.45386">
        <ele>17.883551</ele>
        <time>2020-05-27T22:37:22.561Z</time>
      </trkpt>
      <trkpt lat="50.50341" lon="3.45413">
        <ele>18.039446</ele>
        <time>2020-05-27T22:37:28.613Z</time>
      </trkpt>
      <trkpt lat="50.50355" lon="3.45425">
        <ele>18.114123</ele>
        <time>2020-05-27T22:37:31.220Z</time>
      </trkpt>
      <trkpt lat="50.50407" lon="3.45459">
        <ele>18.41279</ele>
        <time>2020-05-27T22:37:40.552Z</time>
      </trkpt>
      <trkpt lat="50.50416" lon="3.45464">
        <ele>18.465993</ele>
        <time>2020-05-27T22:37:42.218Z</time>
      </trkpt>
      <trkpt lat="50.50444" lon="3.45482">
        <ele>18.62467</ele>
        <time>2020-05-27T22:37:47.363Z</time>
      </trkpt>
      <trkpt lat="50.50447" lon="3.4549">
        <ele>18.65678</ele>
        <time>2020-05-27T22:37:48.366Z</time>
      </trkpt>
      <trkpt lat="50.50448" lon="3.45508">
        <ele>18.719694</ele>
        <time>2020-05-27T22:37:50.331Z</time>
      </trkpt>
      <trkpt lat="50.50443" lon="3.45552">
        <ele>18.869054</ele>
        <time>2020-05-27T22:37:55.399Z</time>
      </trkpt>
      <trkpt lat="50.50441" lon="3.45568">
        <ele>18.924445</ele>
        <time>2020-05-27T22:37:57.080Z</time>
      </trkpt>
      <trkpt lat="50.50441" lon="3.45573">
        <ele>18.941858</ele>
        <time>2020-05-27T22:37:57.613Z</time>
      </trkpt>
      <trkpt lat="50.5044" lon="3.45588">
        <ele>18.993975</ele>
        <time>2020-05-27T22:37:59.463Z</time>
      </trkpt>
      <trkpt lat="50.50437" lon="3.45631">
        <ele>19.121835</ele>
        <time>2020-05-27T22:38:03.786Z</time>
      </trkpt>
      <trkpt lat="50.50436" lon="3.45642">
        <ele>19.151262</ele>
        <time>2020-05-27T22:38:05.177Z</time>
      </trkpt>
      <trkpt lat="50.50433" lon="3.4572">
        <ele>19.358209</ele>
        <time>2020-05-27T22:38:13.185Z</time>
      </trkpt>
      <trkpt lat="50.50424" lon="3.45772">
        <ele>19.502876</ele>
        <time>2020-05-27T22:38:18.857Z</time>
      </trkpt>
      <trkpt lat="50.5041" lon="3.45851">
        <ele>19.721264</ele>
        <time>2020-05-27T22:38:27.432Z</time>
      </trkpt>
      <trkpt lat="50.50361" lon="3.46074">
        <ele>20.360099</ele>
        <time>2020-05-27T22:38:52.690Z</time>
      </trkpt>
      <trkpt lat="50.50345" lon="3.46155">
        <ele>20.567695</ele>
        <time>2020-05-27T22:39:01.534Z</time>
      </trkpt>
      <trkpt lat="50.50335" lon="3.46236">
        <ele>20.567695</ele>
        <time>2020-05-27T22:39:09.762Z</time>
      </trkpt>
      <trkpt lat="50.50325" lon="3.46304">
        <ele>20.567695</ele>
        <time>2020-05-27T22:39:16.465Z</time>
      </trkpt>
      <trkpt lat="50.50317" lon="3.46374">
        <ele>20.567695</ele>
        <time>2020-05-27T22:39:23.075Z</time>
      </trkpt>
      <trkpt lat="50.50316" lon="3.46384">
        <ele>20.567695</ele>
        <time>2020-05-27T22:39:23.921Z</time>
      </trkpt>
    </trkseg>
  </trk>
</gpx>